<?xml version="1.0" encoding="UTF-8" standalone="no" ?>
<gpx xmlns="http://www.topografix.com/GPX/1/1" xmlns:xsi="http://www.w3.org/2001/XMLSchema-instance" xsi:schemaLocation="http://www.topografix.com/GPX/1/1 http://www.topografix.com/GPX/1/1/gpx.xsd" version="1.1" creator="VisuGPX - https://www.visugpx.com">
  <metadata>
    <name>Gevrey-Chambertin - Morey-St-Denis - Clos Vougeot - Chambolle-Musigny - Château d'Entre-les-monts</name>
    <desc><![CDATA[Randonnée pédestre effectuée le 14 octobre 2021.]]></desc>
  </metadata>
  <trk>
    <name><![CDATA[14 oct. 2021 à 08:47:55]]></name>
    <extensions>
      <line xmlns="http://www.topografix.com/GPX/gpx_style/0/2">
        <color>0000FF</color>
        <width>4</width>
      </line>
    </extensions>
    <trkseg>
      <trkpt lat="47.22046" lon="4.96315">
        <ele>308</ele>
        <time>2021-10-14T06:47:55Z</time>
      </trkpt>
      <trkpt lat="47.22046" lon="4.96315">
        <ele>308</ele>
        <time>2021-10-14T06:47:55Z</time>
      </trkpt>
      <trkpt lat="47.22046" lon="4.96325">
        <ele>310</ele>
        <time>2021-10-14T06:50:23Z</time>
      </trkpt>
      <trkpt lat="47.22057" lon="4.96325">
        <ele>311</ele>
        <time>2021-10-14T06:51:40Z</time>
      </trkpt>
      <trkpt lat="47.22051" lon="4.96329">
        <ele>310</ele>
        <time>2021-10-14T06:52:30Z</time>
      </trkpt>
      <trkpt lat="47.22046" lon="4.96326">
        <ele>311</ele>
        <time>2021-10-14T06:56:01Z</time>
      </trkpt>
      <trkpt lat="47.22048" lon="4.96331">
        <ele>314</ele>
        <time>2021-10-14T06:58:19Z</time>
      </trkpt>
      <trkpt lat="47.2205" lon="4.96336">
        <ele>314</ele>
        <time>2021-10-14T06:58:23Z</time>
      </trkpt>
      <trkpt lat="47.22046" lon="4.96343">
        <ele>313</ele>
        <time>2021-10-14T06:59:55Z</time>
      </trkpt>
      <trkpt lat="47.22048" lon="4.96339">
        <ele>316</ele>
        <time>2021-10-14T07:01:34Z</time>
      </trkpt>
      <trkpt lat="47.22047" lon="4.96333">
        <ele>316</ele>
        <time>2021-10-14T07:02:11Z</time>
      </trkpt>
      <trkpt lat="47.22045" lon="4.96328">
        <ele>316</ele>
        <time>2021-10-14T07:05:01Z</time>
      </trkpt>
      <trkpt lat="47.22052" lon="4.9633">
        <ele>316</ele>
        <time>2021-10-14T07:05:13Z</time>
      </trkpt>
      <trkpt lat="47.22059" lon="4.96331">
        <ele>316</ele>
        <time>2021-10-14T07:05:18Z</time>
      </trkpt>
      <trkpt lat="47.22066" lon="4.96327">
        <ele>316</ele>
        <time>2021-10-14T07:05:22Z</time>
      </trkpt>
      <trkpt lat="47.22084" lon="4.96331">
        <ele>316</ele>
        <time>2021-10-14T07:05:34Z</time>
      </trkpt>
      <trkpt lat="47.22103" lon="4.96339">
        <ele>315</ele>
        <time>2021-10-14T07:05:52Z</time>
      </trkpt>
      <trkpt lat="47.22108" lon="4.96342">
        <ele>315</ele>
        <time>2021-10-14T07:05:57Z</time>
      </trkpt>
      <trkpt lat="47.22121" lon="4.96349">
        <ele>314</ele>
        <time>2021-10-14T07:06:11Z</time>
      </trkpt>
      <trkpt lat="47.22125" lon="4.96355">
        <ele>313</ele>
        <time>2021-10-14T07:06:17Z</time>
      </trkpt>
      <trkpt lat="47.22136" lon="4.96402">
        <ele>308</ele>
        <time>2021-10-14T07:07:00Z</time>
      </trkpt>
      <trkpt lat="47.22137" lon="4.96413">
        <ele>307</ele>
        <time>2021-10-14T07:07:09Z</time>
      </trkpt>
      <trkpt lat="47.22149" lon="4.96445">
        <ele>304</ele>
        <time>2021-10-14T07:07:31Z</time>
      </trkpt>
      <trkpt lat="47.22152" lon="4.96463">
        <ele>302</ele>
        <time>2021-10-14T07:07:42Z</time>
      </trkpt>
      <trkpt lat="47.22151" lon="4.96471">
        <ele>301</ele>
        <time>2021-10-14T07:07:48Z</time>
      </trkpt>
      <trkpt lat="47.22148" lon="4.96476">
        <ele>300</ele>
        <time>2021-10-14T07:07:56Z</time>
      </trkpt>
      <trkpt lat="47.22144" lon="4.96476">
        <ele>301</ele>
        <time>2021-10-14T07:08:00Z</time>
      </trkpt>
      <trkpt lat="47.2214" lon="4.96476">
        <ele>302</ele>
        <time>2021-10-14T07:08:03Z</time>
      </trkpt>
      <trkpt lat="47.22136" lon="4.96477">
        <ele>301</ele>
        <time>2021-10-14T07:08:07Z</time>
      </trkpt>
      <trkpt lat="47.22132" lon="4.96478">
        <ele>302</ele>
        <time>2021-10-14T07:08:11Z</time>
      </trkpt>
      <trkpt lat="47.22126" lon="4.96476">
        <ele>302</ele>
        <time>2021-10-14T07:08:16Z</time>
      </trkpt>
      <trkpt lat="47.22121" lon="4.96477">
        <ele>302</ele>
        <time>2021-10-14T07:08:20Z</time>
      </trkpt>
      <trkpt lat="47.22116" lon="4.96477">
        <ele>302</ele>
        <time>2021-10-14T07:08:23Z</time>
      </trkpt>
      <trkpt lat="47.22113" lon="4.96475">
        <ele>302</ele>
        <time>2021-10-14T07:08:26Z</time>
      </trkpt>
      <trkpt lat="47.22105" lon="4.96476">
        <ele>303</ele>
        <time>2021-10-14T07:08:34Z</time>
      </trkpt>
      <trkpt lat="47.22101" lon="4.96477">
        <ele>302</ele>
        <time>2021-10-14T07:08:37Z</time>
      </trkpt>
      <trkpt lat="47.22097" lon="4.96478">
        <ele>302</ele>
        <time>2021-10-14T07:08:40Z</time>
      </trkpt>
      <trkpt lat="47.22092" lon="4.96477">
        <ele>302</ele>
        <time>2021-10-14T07:08:44Z</time>
      </trkpt>
      <trkpt lat="47.22084" lon="4.96477">
        <ele>303</ele>
        <time>2021-10-14T07:08:51Z</time>
      </trkpt>
      <trkpt lat="47.22075" lon="4.96477">
        <ele>302</ele>
        <time>2021-10-14T07:08:57Z</time>
      </trkpt>
      <trkpt lat="47.22071" lon="4.96475">
        <ele>303</ele>
        <time>2021-10-14T07:09:01Z</time>
      </trkpt>
      <trkpt lat="47.2206" lon="4.96475">
        <ele>303</ele>
        <time>2021-10-14T07:09:10Z</time>
      </trkpt>
      <trkpt lat="47.22056" lon="4.96476">
        <ele>302</ele>
        <time>2021-10-14T07:09:14Z</time>
      </trkpt>
      <trkpt lat="47.2203" lon="4.96473">
        <ele>302</ele>
        <time>2021-10-14T07:09:35Z</time>
      </trkpt>
      <trkpt lat="47.22026" lon="4.9647">
        <ele>302</ele>
        <time>2021-10-14T07:09:38Z</time>
      </trkpt>
      <trkpt lat="47.22015" lon="4.96461">
        <ele>302</ele>
        <time>2021-10-14T07:09:49Z</time>
      </trkpt>
      <trkpt lat="47.22007" lon="4.96449">
        <ele>302</ele>
        <time>2021-10-14T07:09:58Z</time>
      </trkpt>
      <trkpt lat="47.21996" lon="4.96439">
        <ele>303</ele>
        <time>2021-10-14T07:10:08Z</time>
      </trkpt>
      <trkpt lat="47.21991" lon="4.96437">
        <ele>303</ele>
        <time>2021-10-14T07:10:12Z</time>
      </trkpt>
      <trkpt lat="47.21985" lon="4.96437">
        <ele>303</ele>
        <time>2021-10-14T07:10:28Z</time>
      </trkpt>
      <trkpt lat="47.21978" lon="4.96439">
        <ele>304</ele>
        <time>2021-10-14T07:10:48Z</time>
      </trkpt>
      <trkpt lat="47.21974" lon="4.96441">
        <ele>303</ele>
        <time>2021-10-14T07:10:51Z</time>
      </trkpt>
      <trkpt lat="47.2197" lon="4.9644">
        <ele>303</ele>
        <time>2021-10-14T07:10:54Z</time>
      </trkpt>
      <trkpt lat="47.21966" lon="4.96443">
        <ele>303</ele>
        <time>2021-10-14T07:10:59Z</time>
      </trkpt>
      <trkpt lat="47.2196" lon="4.96444">
        <ele>302</ele>
        <time>2021-10-14T07:11:05Z</time>
      </trkpt>
      <trkpt lat="47.21951" lon="4.96445">
        <ele>302</ele>
        <time>2021-10-14T07:11:13Z</time>
      </trkpt>
      <trkpt lat="47.21946" lon="4.96445">
        <ele>302</ele>
        <time>2021-10-14T07:11:16Z</time>
      </trkpt>
      <trkpt lat="47.21942" lon="4.96444">
        <ele>302</ele>
        <time>2021-10-14T07:11:19Z</time>
      </trkpt>
      <trkpt lat="47.21933" lon="4.96444">
        <ele>301</ele>
        <time>2021-10-14T07:11:25Z</time>
      </trkpt>
      <trkpt lat="47.21925" lon="4.96443">
        <ele>301</ele>
        <time>2021-10-14T07:11:31Z</time>
      </trkpt>
      <trkpt lat="47.21921" lon="4.96443">
        <ele>301</ele>
        <time>2021-10-14T07:11:34Z</time>
      </trkpt>
      <trkpt lat="47.21918" lon="4.96439">
        <ele>301</ele>
        <time>2021-10-14T07:11:37Z</time>
      </trkpt>
      <trkpt lat="47.21913" lon="4.96437">
        <ele>301</ele>
        <time>2021-10-14T07:11:40Z</time>
      </trkpt>
      <trkpt lat="47.21905" lon="4.96434">
        <ele>301</ele>
        <time>2021-10-14T07:11:46Z</time>
      </trkpt>
      <trkpt lat="47.219" lon="4.96435">
        <ele>301</ele>
        <time>2021-10-14T07:11:49Z</time>
      </trkpt>
      <trkpt lat="47.21891" lon="4.96437">
        <ele>301</ele>
        <time>2021-10-14T07:11:57Z</time>
      </trkpt>
      <trkpt lat="47.2187" lon="4.96435">
        <ele>301</ele>
        <time>2021-10-14T07:12:14Z</time>
      </trkpt>
      <trkpt lat="47.21866" lon="4.96436">
        <ele>301</ele>
        <time>2021-10-14T07:12:18Z</time>
      </trkpt>
      <trkpt lat="47.21857" lon="4.9644">
        <ele>301</ele>
        <time>2021-10-14T07:12:25Z</time>
      </trkpt>
      <trkpt lat="47.21852" lon="4.96441">
        <ele>301</ele>
        <time>2021-10-14T07:12:28Z</time>
      </trkpt>
      <trkpt lat="47.21836" lon="4.96445">
        <ele>301</ele>
        <time>2021-10-14T07:12:39Z</time>
      </trkpt>
      <trkpt lat="47.21832" lon="4.96445">
        <ele>301</ele>
        <time>2021-10-14T07:12:42Z</time>
      </trkpt>
      <trkpt lat="47.21827" lon="4.96446">
        <ele>302</ele>
        <time>2021-10-14T07:12:45Z</time>
      </trkpt>
      <trkpt lat="47.21819" lon="4.96445">
        <ele>302</ele>
        <time>2021-10-14T07:12:52Z</time>
      </trkpt>
      <trkpt lat="47.21809" lon="4.96442">
        <ele>302</ele>
        <time>2021-10-14T07:12:58Z</time>
      </trkpt>
      <trkpt lat="47.21805" lon="4.96442">
        <ele>302</ele>
        <time>2021-10-14T07:13:01Z</time>
      </trkpt>
      <trkpt lat="47.21797" lon="4.96438">
        <ele>302</ele>
        <time>2021-10-14T07:13:10Z</time>
      </trkpt>
      <trkpt lat="47.21794" lon="4.96435">
        <ele>302</ele>
        <time>2021-10-14T07:13:13Z</time>
      </trkpt>
      <trkpt lat="47.2179" lon="4.96431">
        <ele>302</ele>
        <time>2021-10-14T07:13:16Z</time>
      </trkpt>
      <trkpt lat="47.21782" lon="4.96427">
        <ele>303</ele>
        <time>2021-10-14T07:13:22Z</time>
      </trkpt>
      <trkpt lat="47.21777" lon="4.96425">
        <ele>302</ele>
        <time>2021-10-14T07:13:25Z</time>
      </trkpt>
      <trkpt lat="47.21773" lon="4.96424">
        <ele>303</ele>
        <time>2021-10-14T07:13:28Z</time>
      </trkpt>
      <trkpt lat="47.21738" lon="4.96406">
        <ele>305</ele>
        <time>2021-10-14T07:13:58Z</time>
      </trkpt>
      <trkpt lat="47.21734" lon="4.96405">
        <ele>305</ele>
        <time>2021-10-14T07:14:01Z</time>
      </trkpt>
      <trkpt lat="47.2173" lon="4.96405">
        <ele>305</ele>
        <time>2021-10-14T07:14:04Z</time>
      </trkpt>
      <trkpt lat="47.21726" lon="4.96403">
        <ele>306</ele>
        <time>2021-10-14T07:14:08Z</time>
      </trkpt>
      <trkpt lat="47.21718" lon="4.964">
        <ele>306</ele>
        <time>2021-10-14T07:14:14Z</time>
      </trkpt>
      <trkpt lat="47.21714" lon="4.96397">
        <ele>307</ele>
        <time>2021-10-14T07:14:17Z</time>
      </trkpt>
      <trkpt lat="47.2171" lon="4.96395">
        <ele>307</ele>
        <time>2021-10-14T07:14:20Z</time>
      </trkpt>
      <trkpt lat="47.21704" lon="4.96393">
        <ele>307</ele>
        <time>2021-10-14T07:14:26Z</time>
      </trkpt>
      <trkpt lat="47.21699" lon="4.96392">
        <ele>308</ele>
        <time>2021-10-14T07:14:29Z</time>
      </trkpt>
      <trkpt lat="47.21696" lon="4.9639">
        <ele>308</ele>
        <time>2021-10-14T07:14:32Z</time>
      </trkpt>
      <trkpt lat="47.2169" lon="4.96388">
        <ele>309</ele>
        <time>2021-10-14T07:15:10Z</time>
      </trkpt>
      <trkpt lat="47.2168" lon="4.96385">
        <ele>309</ele>
        <time>2021-10-14T07:15:20Z</time>
      </trkpt>
      <trkpt lat="47.21675" lon="4.96385">
        <ele>309</ele>
        <time>2021-10-14T07:15:24Z</time>
      </trkpt>
      <trkpt lat="47.21669" lon="4.96383">
        <ele>310</ele>
        <time>2021-10-14T07:15:30Z</time>
      </trkpt>
      <trkpt lat="47.21663" lon="4.96379">
        <ele>309</ele>
        <time>2021-10-14T07:15:38Z</time>
      </trkpt>
      <trkpt lat="47.21656" lon="4.96381">
        <ele>309</ele>
        <time>2021-10-14T07:15:44Z</time>
      </trkpt>
      <trkpt lat="47.2165" lon="4.96382">
        <ele>309</ele>
        <time>2021-10-14T07:15:47Z</time>
      </trkpt>
      <trkpt lat="47.21644" lon="4.96383">
        <ele>309</ele>
        <time>2021-10-14T07:15:51Z</time>
      </trkpt>
      <trkpt lat="47.21631" lon="4.96382">
        <ele>308</ele>
        <time>2021-10-14T07:16:00Z</time>
      </trkpt>
      <trkpt lat="47.21625" lon="4.96383">
        <ele>309</ele>
        <time>2021-10-14T07:16:04Z</time>
      </trkpt>
      <trkpt lat="47.21614" lon="4.96388">
        <ele>307</ele>
        <time>2021-10-14T07:16:12Z</time>
      </trkpt>
      <trkpt lat="47.21608" lon="4.96388">
        <ele>308</ele>
        <time>2021-10-14T07:16:17Z</time>
      </trkpt>
      <trkpt lat="47.21602" lon="4.96389">
        <ele>308</ele>
        <time>2021-10-14T07:16:21Z</time>
      </trkpt>
      <trkpt lat="47.21595" lon="4.96386">
        <ele>307</ele>
        <time>2021-10-14T07:16:26Z</time>
      </trkpt>
      <trkpt lat="47.21584" lon="4.96372">
        <ele>308</ele>
        <time>2021-10-14T07:16:38Z</time>
      </trkpt>
      <trkpt lat="47.21571" lon="4.96356">
        <ele>309</ele>
        <time>2021-10-14T07:16:51Z</time>
      </trkpt>
      <trkpt lat="47.21562" lon="4.96355">
        <ele>312</ele>
        <time>2021-10-14T07:17:02Z</time>
      </trkpt>
      <trkpt lat="47.21547" lon="4.96363">
        <ele>313</ele>
        <time>2021-10-14T07:17:12Z</time>
      </trkpt>
      <trkpt lat="47.21536" lon="4.96362">
        <ele>312</ele>
        <time>2021-10-14T07:17:40Z</time>
      </trkpt>
      <trkpt lat="47.21528" lon="4.96359">
        <ele>313</ele>
        <time>2021-10-14T07:17:47Z</time>
      </trkpt>
      <trkpt lat="47.21515" lon="4.96358">
        <ele>313</ele>
        <time>2021-10-14T07:17:55Z</time>
      </trkpt>
      <trkpt lat="47.21504" lon="4.96352">
        <ele>313</ele>
        <time>2021-10-14T07:18:05Z</time>
      </trkpt>
      <trkpt lat="47.21498" lon="4.96351">
        <ele>313</ele>
        <time>2021-10-14T07:18:11Z</time>
      </trkpt>
      <trkpt lat="47.21493" lon="4.9635">
        <ele>313</ele>
        <time>2021-10-14T07:18:16Z</time>
      </trkpt>
      <trkpt lat="47.21486" lon="4.96348">
        <ele>313</ele>
        <time>2021-10-14T07:18:20Z</time>
      </trkpt>
      <trkpt lat="47.21481" lon="4.96345">
        <ele>313</ele>
        <time>2021-10-14T07:18:25Z</time>
      </trkpt>
      <trkpt lat="47.21457" lon="4.96339">
        <ele>312</ele>
        <time>2021-10-14T07:18:54Z</time>
      </trkpt>
      <trkpt lat="47.21452" lon="4.96335">
        <ele>311</ele>
        <time>2021-10-14T07:18:59Z</time>
      </trkpt>
      <trkpt lat="47.21447" lon="4.96335">
        <ele>311</ele>
        <time>2021-10-14T07:19:05Z</time>
      </trkpt>
      <trkpt lat="47.21442" lon="4.96345">
        <ele>310</ele>
        <time>2021-10-14T07:19:12Z</time>
      </trkpt>
      <trkpt lat="47.21437" lon="4.96348">
        <ele>309</ele>
        <time>2021-10-14T07:19:17Z</time>
      </trkpt>
      <trkpt lat="47.21431" lon="4.9635">
        <ele>307</ele>
        <time>2021-10-14T07:19:23Z</time>
      </trkpt>
      <trkpt lat="47.21413" lon="4.96346">
        <ele>308</ele>
        <time>2021-10-14T07:19:40Z</time>
      </trkpt>
      <trkpt lat="47.21402" lon="4.96338">
        <ele>308</ele>
        <time>2021-10-14T07:19:50Z</time>
      </trkpt>
      <trkpt lat="47.21389" lon="4.96333">
        <ele>307</ele>
        <time>2021-10-14T07:20:02Z</time>
      </trkpt>
      <trkpt lat="47.21383" lon="4.96335">
        <ele>307</ele>
        <time>2021-10-14T07:20:06Z</time>
      </trkpt>
      <trkpt lat="47.21377" lon="4.96334">
        <ele>307</ele>
        <time>2021-10-14T07:20:11Z</time>
      </trkpt>
      <trkpt lat="47.21339" lon="4.96325">
        <ele>307</ele>
        <time>2021-10-14T07:20:54Z</time>
      </trkpt>
      <trkpt lat="47.21335" lon="4.96332">
        <ele>307</ele>
        <time>2021-10-14T07:20:59Z</time>
      </trkpt>
      <trkpt lat="47.2133" lon="4.96335">
        <ele>306</ele>
        <time>2021-10-14T07:21:05Z</time>
      </trkpt>
      <trkpt lat="47.2132" lon="4.96336">
        <ele>305</ele>
        <time>2021-10-14T07:21:17Z</time>
      </trkpt>
      <trkpt lat="47.21292" lon="4.96322">
        <ele>304</ele>
        <time>2021-10-14T07:21:43Z</time>
      </trkpt>
      <trkpt lat="47.21286" lon="4.96321">
        <ele>304</ele>
        <time>2021-10-14T07:21:48Z</time>
      </trkpt>
      <trkpt lat="47.2128" lon="4.9632">
        <ele>304</ele>
        <time>2021-10-14T07:21:53Z</time>
      </trkpt>
      <trkpt lat="47.21269" lon="4.96317">
        <ele>304</ele>
        <time>2021-10-14T07:22:03Z</time>
      </trkpt>
      <trkpt lat="47.21261" lon="4.96319">
        <ele>304</ele>
        <time>2021-10-14T07:22:15Z</time>
      </trkpt>
      <trkpt lat="47.21256" lon="4.96314">
        <ele>304</ele>
        <time>2021-10-14T07:22:59Z</time>
      </trkpt>
      <trkpt lat="47.21255" lon="4.96325">
        <ele>304</ele>
        <time>2021-10-14T07:23:05Z</time>
      </trkpt>
      <trkpt lat="47.21252" lon="4.96338">
        <ele>301</ele>
        <time>2021-10-14T07:23:30Z</time>
      </trkpt>
      <trkpt lat="47.21244" lon="4.96339">
        <ele>300</ele>
        <time>2021-10-14T07:23:41Z</time>
      </trkpt>
      <trkpt lat="47.21237" lon="4.96342">
        <ele>300</ele>
        <time>2021-10-14T07:24:47Z</time>
      </trkpt>
      <trkpt lat="47.21233" lon="4.96348">
        <ele>299</ele>
        <time>2021-10-14T07:24:53Z</time>
      </trkpt>
      <trkpt lat="47.21219" lon="4.96353">
        <ele>299</ele>
        <time>2021-10-14T07:25:07Z</time>
      </trkpt>
      <trkpt lat="47.2121" lon="4.96353">
        <ele>298</ele>
        <time>2021-10-14T07:25:16Z</time>
      </trkpt>
      <trkpt lat="47.21197" lon="4.96356">
        <ele>298</ele>
        <time>2021-10-14T07:25:31Z</time>
      </trkpt>
      <trkpt lat="47.21164" lon="4.96344">
        <ele>297</ele>
        <time>2021-10-14T07:26:02Z</time>
      </trkpt>
      <trkpt lat="47.2116" lon="4.96343">
        <ele>297</ele>
        <time>2021-10-14T07:26:07Z</time>
      </trkpt>
      <trkpt lat="47.21152" lon="4.9634">
        <ele>297</ele>
        <time>2021-10-14T07:26:14Z</time>
      </trkpt>
      <trkpt lat="47.21147" lon="4.96339">
        <ele>297</ele>
        <time>2021-10-14T07:26:17Z</time>
      </trkpt>
      <trkpt lat="47.21144" lon="4.9634">
        <ele>297</ele>
        <time>2021-10-14T07:26:20Z</time>
      </trkpt>
      <trkpt lat="47.21138" lon="4.9634">
        <ele>297</ele>
        <time>2021-10-14T07:26:25Z</time>
      </trkpt>
      <trkpt lat="47.21131" lon="4.96337">
        <ele>297</ele>
        <time>2021-10-14T07:26:32Z</time>
      </trkpt>
      <trkpt lat="47.21125" lon="4.96338">
        <ele>297</ele>
        <time>2021-10-14T07:26:38Z</time>
      </trkpt>
      <trkpt lat="47.21097" lon="4.96332">
        <ele>297</ele>
        <time>2021-10-14T07:27:01Z</time>
      </trkpt>
      <trkpt lat="47.21091" lon="4.96329">
        <ele>297</ele>
        <time>2021-10-14T07:27:05Z</time>
      </trkpt>
      <trkpt lat="47.21079" lon="4.96328">
        <ele>296</ele>
        <time>2021-10-14T07:27:14Z</time>
      </trkpt>
      <trkpt lat="47.21055" lon="4.96313">
        <ele>296</ele>
        <time>2021-10-14T07:27:37Z</time>
      </trkpt>
      <trkpt lat="47.21051" lon="4.96308">
        <ele>296</ele>
        <time>2021-10-14T07:27:43Z</time>
      </trkpt>
      <trkpt lat="47.21048" lon="4.96296">
        <ele>297</ele>
        <time>2021-10-14T07:27:50Z</time>
      </trkpt>
      <trkpt lat="47.21043" lon="4.96292">
        <ele>297</ele>
        <time>2021-10-14T07:27:55Z</time>
      </trkpt>
      <trkpt lat="47.21038" lon="4.96288">
        <ele>297</ele>
        <time>2021-10-14T07:28:00Z</time>
      </trkpt>
      <trkpt lat="47.21033" lon="4.96287">
        <ele>297</ele>
        <time>2021-10-14T07:28:04Z</time>
      </trkpt>
      <trkpt lat="47.21027" lon="4.96284">
        <ele>297</ele>
        <time>2021-10-14T07:28:09Z</time>
      </trkpt>
      <trkpt lat="47.21011" lon="4.96278">
        <ele>297</ele>
        <time>2021-10-14T07:28:22Z</time>
      </trkpt>
      <trkpt lat="47.21005" lon="4.96276">
        <ele>297</ele>
        <time>2021-10-14T07:28:27Z</time>
      </trkpt>
      <trkpt lat="47.20998" lon="4.96274">
        <ele>297</ele>
        <time>2021-10-14T07:28:32Z</time>
      </trkpt>
      <trkpt lat="47.20991" lon="4.96271">
        <ele>297</ele>
        <time>2021-10-14T07:28:39Z</time>
      </trkpt>
      <trkpt lat="47.20984" lon="4.96271">
        <ele>297</ele>
        <time>2021-10-14T07:28:45Z</time>
      </trkpt>
      <trkpt lat="47.20978" lon="4.96269">
        <ele>297</ele>
        <time>2021-10-14T07:28:49Z</time>
      </trkpt>
      <trkpt lat="47.20955" lon="4.9626">
        <ele>297</ele>
        <time>2021-10-14T07:29:07Z</time>
      </trkpt>
      <trkpt lat="47.2095" lon="4.96255">
        <ele>297</ele>
        <time>2021-10-14T07:29:13Z</time>
      </trkpt>
      <trkpt lat="47.2095" lon="4.96246">
        <ele>297</ele>
        <time>2021-10-14T07:29:18Z</time>
      </trkpt>
      <trkpt lat="47.20941" lon="4.96234">
        <ele>298</ele>
        <time>2021-10-14T07:29:27Z</time>
      </trkpt>
      <trkpt lat="47.20935" lon="4.96234">
        <ele>298</ele>
        <time>2021-10-14T07:29:32Z</time>
      </trkpt>
      <trkpt lat="47.2093" lon="4.96231">
        <ele>298</ele>
        <time>2021-10-14T07:29:36Z</time>
      </trkpt>
      <trkpt lat="47.20924" lon="4.96231">
        <ele>297</ele>
        <time>2021-10-14T07:29:41Z</time>
      </trkpt>
      <trkpt lat="47.20918" lon="4.96228">
        <ele>297</ele>
        <time>2021-10-14T07:29:45Z</time>
      </trkpt>
      <trkpt lat="47.20895" lon="4.96225">
        <ele>297</ele>
        <time>2021-10-14T07:30:04Z</time>
      </trkpt>
      <trkpt lat="47.20866" lon="4.96223">
        <ele>296</ele>
        <time>2021-10-14T07:30:27Z</time>
      </trkpt>
      <trkpt lat="47.20848" lon="4.96222">
        <ele>295</ele>
        <time>2021-10-14T07:30:42Z</time>
      </trkpt>
      <trkpt lat="47.20843" lon="4.96224">
        <ele>295</ele>
        <time>2021-10-14T07:30:46Z</time>
      </trkpt>
      <trkpt lat="47.2083" lon="4.96223">
        <ele>294</ele>
        <time>2021-10-14T07:30:55Z</time>
      </trkpt>
      <trkpt lat="47.20824" lon="4.96225">
        <ele>294</ele>
        <time>2021-10-14T07:31:01Z</time>
      </trkpt>
      <trkpt lat="47.20813" lon="4.96235">
        <ele>293</ele>
        <time>2021-10-14T07:31:11Z</time>
      </trkpt>
      <trkpt lat="47.20807" lon="4.96239">
        <ele>293</ele>
        <time>2021-10-14T07:31:16Z</time>
      </trkpt>
      <trkpt lat="47.20795" lon="4.96241">
        <ele>293</ele>
        <time>2021-10-14T07:31:26Z</time>
      </trkpt>
      <trkpt lat="47.20783" lon="4.96239">
        <ele>294</ele>
        <time>2021-10-14T07:31:37Z</time>
      </trkpt>
      <trkpt lat="47.20777" lon="4.96239">
        <ele>293</ele>
        <time>2021-10-14T07:31:42Z</time>
      </trkpt>
      <trkpt lat="47.20763" lon="4.96243">
        <ele>293</ele>
        <time>2021-10-14T07:31:50Z</time>
      </trkpt>
      <trkpt lat="47.20751" lon="4.96247">
        <ele>292</ele>
        <time>2021-10-14T07:32:00Z</time>
      </trkpt>
      <trkpt lat="47.20745" lon="4.96248">
        <ele>292</ele>
        <time>2021-10-14T07:32:05Z</time>
      </trkpt>
      <trkpt lat="47.20739" lon="4.96249">
        <ele>292</ele>
        <time>2021-10-14T07:32:10Z</time>
      </trkpt>
      <trkpt lat="47.20727" lon="4.96252">
        <ele>291</ele>
        <time>2021-10-14T07:32:19Z</time>
      </trkpt>
      <trkpt lat="47.20721" lon="4.96252">
        <ele>291</ele>
        <time>2021-10-14T07:32:23Z</time>
      </trkpt>
      <trkpt lat="47.20715" lon="4.96252">
        <ele>291</ele>
        <time>2021-10-14T07:32:28Z</time>
      </trkpt>
      <trkpt lat="47.20703" lon="4.96249">
        <ele>292</ele>
        <time>2021-10-14T07:32:36Z</time>
      </trkpt>
      <trkpt lat="47.20697" lon="4.96248">
        <ele>291</ele>
        <time>2021-10-14T07:32:41Z</time>
      </trkpt>
      <trkpt lat="47.20691" lon="4.96247">
        <ele>292</ele>
        <time>2021-10-14T07:32:45Z</time>
      </trkpt>
      <trkpt lat="47.20685" lon="4.96247">
        <ele>291</ele>
        <time>2021-10-14T07:32:49Z</time>
      </trkpt>
      <trkpt lat="47.20677" lon="4.96243">
        <ele>291</ele>
        <time>2021-10-14T07:32:57Z</time>
      </trkpt>
      <trkpt lat="47.20672" lon="4.96238">
        <ele>291</ele>
        <time>2021-10-14T07:33:08Z</time>
      </trkpt>
      <trkpt lat="47.20671" lon="4.96227">
        <ele>293</ele>
        <time>2021-10-14T07:33:32Z</time>
      </trkpt>
      <trkpt lat="47.20676" lon="4.96229">
        <ele>293</ele>
        <time>2021-10-14T07:34:46Z</time>
      </trkpt>
      <trkpt lat="47.20675" lon="4.96241">
        <ele>292</ele>
        <time>2021-10-14T07:34:58Z</time>
      </trkpt>
      <trkpt lat="47.20664" lon="4.96242">
        <ele>290</ele>
        <time>2021-10-14T07:35:12Z</time>
      </trkpt>
      <trkpt lat="47.20635" lon="4.96254">
        <ele>290</ele>
        <time>2021-10-14T07:35:46Z</time>
      </trkpt>
      <trkpt lat="47.20612" lon="4.96264">
        <ele>288</ele>
        <time>2021-10-14T07:36:14Z</time>
      </trkpt>
      <trkpt lat="47.20571" lon="4.96263">
        <ele>286</ele>
        <time>2021-10-14T07:36:47Z</time>
      </trkpt>
      <trkpt lat="47.20557" lon="4.9627">
        <ele>285</ele>
        <time>2021-10-14T07:36:59Z</time>
      </trkpt>
      <trkpt lat="47.20543" lon="4.96271">
        <ele>285</ele>
        <time>2021-10-14T07:37:12Z</time>
      </trkpt>
      <trkpt lat="47.20521" lon="4.96281">
        <ele>284</ele>
        <time>2021-10-14T07:37:37Z</time>
      </trkpt>
      <trkpt lat="47.20491" lon="4.96279">
        <ele>284</ele>
        <time>2021-10-14T07:38:00Z</time>
      </trkpt>
      <trkpt lat="47.20446" lon="4.96263">
        <ele>284</ele>
        <time>2021-10-14T07:38:33Z</time>
      </trkpt>
      <trkpt lat="47.204" lon="4.96251">
        <ele>285</ele>
        <time>2021-10-14T07:39:06Z</time>
      </trkpt>
      <trkpt lat="47.20355" lon="4.96237">
        <ele>286</ele>
        <time>2021-10-14T07:39:45Z</time>
      </trkpt>
      <trkpt lat="47.20337" lon="4.96233">
        <ele>286</ele>
        <time>2021-10-14T07:39:59Z</time>
      </trkpt>
      <trkpt lat="47.20331" lon="4.96231">
        <ele>286</ele>
        <time>2021-10-14T07:40:04Z</time>
      </trkpt>
      <trkpt lat="47.20325" lon="4.96232">
        <ele>286</ele>
        <time>2021-10-14T07:40:09Z</time>
      </trkpt>
      <trkpt lat="47.20313" lon="4.96229">
        <ele>285</ele>
        <time>2021-10-14T07:40:19Z</time>
      </trkpt>
      <trkpt lat="47.20307" lon="4.96228">
        <ele>286</ele>
        <time>2021-10-14T07:40:23Z</time>
      </trkpt>
      <trkpt lat="47.20296" lon="4.96228">
        <ele>285</ele>
        <time>2021-10-14T07:40:32Z</time>
      </trkpt>
      <trkpt lat="47.20287" lon="4.96227">
        <ele>285</ele>
        <time>2021-10-14T07:40:40Z</time>
      </trkpt>
      <trkpt lat="47.20254" lon="4.96223">
        <ele>285</ele>
        <time>2021-10-14T07:41:07Z</time>
      </trkpt>
      <trkpt lat="47.20248" lon="4.9622">
        <ele>285</ele>
        <time>2021-10-14T07:41:23Z</time>
      </trkpt>
      <trkpt lat="47.20241" lon="4.96217">
        <ele>285</ele>
        <time>2021-10-14T07:41:59Z</time>
      </trkpt>
      <trkpt lat="47.20225" lon="4.96214">
        <ele>285</ele>
        <time>2021-10-14T07:42:10Z</time>
      </trkpt>
      <trkpt lat="47.2022" lon="4.9621">
        <ele>285</ele>
        <time>2021-10-14T07:42:14Z</time>
      </trkpt>
      <trkpt lat="47.202" lon="4.96214">
        <ele>284</ele>
        <time>2021-10-14T07:42:32Z</time>
      </trkpt>
      <trkpt lat="47.20181" lon="4.96216">
        <ele>284</ele>
        <time>2021-10-14T07:42:48Z</time>
      </trkpt>
      <trkpt lat="47.2017" lon="4.96223">
        <ele>284</ele>
        <time>2021-10-14T07:43:00Z</time>
      </trkpt>
      <trkpt lat="47.20151" lon="4.96225">
        <ele>284</ele>
        <time>2021-10-14T07:43:14Z</time>
      </trkpt>
      <trkpt lat="47.20146" lon="4.96227">
        <ele>284</ele>
        <time>2021-10-14T07:43:18Z</time>
      </trkpt>
      <trkpt lat="47.2014" lon="4.9623">
        <ele>284</ele>
        <time>2021-10-14T07:43:23Z</time>
      </trkpt>
      <trkpt lat="47.20134" lon="4.96236">
        <ele>284</ele>
        <time>2021-10-14T07:43:32Z</time>
      </trkpt>
      <trkpt lat="47.20122" lon="4.9624">
        <ele>284</ele>
        <time>2021-10-14T07:43:42Z</time>
      </trkpt>
      <trkpt lat="47.20101" lon="4.96234">
        <ele>285</ele>
        <time>2021-10-14T07:43:57Z</time>
      </trkpt>
      <trkpt lat="47.20093" lon="4.96234">
        <ele>285</ele>
        <time>2021-10-14T07:44:04Z</time>
      </trkpt>
      <trkpt lat="47.20072" lon="4.9623">
        <ele>285</ele>
        <time>2021-10-14T07:44:20Z</time>
      </trkpt>
      <trkpt lat="47.20061" lon="4.96221">
        <ele>285</ele>
        <time>2021-10-14T07:44:29Z</time>
      </trkpt>
      <trkpt lat="47.20055" lon="4.9622">
        <ele>285</ele>
        <time>2021-10-14T07:44:34Z</time>
      </trkpt>
      <trkpt lat="47.20025" lon="4.96208">
        <ele>286</ele>
        <time>2021-10-14T07:45:01Z</time>
      </trkpt>
      <trkpt lat="47.19988" lon="4.96199">
        <ele>287</ele>
        <time>2021-10-14T07:45:31Z</time>
      </trkpt>
      <trkpt lat="47.19983" lon="4.962">
        <ele>287</ele>
        <time>2021-10-14T07:45:36Z</time>
      </trkpt>
      <trkpt lat="47.19968" lon="4.96205">
        <ele>286</ele>
        <time>2021-10-14T07:45:49Z</time>
      </trkpt>
      <trkpt lat="47.1996" lon="4.96202">
        <ele>286</ele>
        <time>2021-10-14T07:46:01Z</time>
      </trkpt>
      <trkpt lat="47.19946" lon="4.96191">
        <ele>285</ele>
        <time>2021-10-14T07:46:29Z</time>
      </trkpt>
      <trkpt lat="47.19938" lon="4.96186">
        <ele>286</ele>
        <time>2021-10-14T07:46:37Z</time>
      </trkpt>
      <trkpt lat="47.19933" lon="4.9618">
        <ele>287</ele>
        <time>2021-10-14T07:46:45Z</time>
      </trkpt>
      <trkpt lat="47.19932" lon="4.9617">
        <ele>287</ele>
        <time>2021-10-14T07:46:51Z</time>
      </trkpt>
      <trkpt lat="47.19933" lon="4.96161">
        <ele>287</ele>
        <time>2021-10-14T07:46:57Z</time>
      </trkpt>
      <trkpt lat="47.19936" lon="4.96152">
        <ele>287</ele>
        <time>2021-10-14T07:47:03Z</time>
      </trkpt>
      <trkpt lat="47.19943" lon="4.96113">
        <ele>289</ele>
        <time>2021-10-14T07:47:29Z</time>
      </trkpt>
      <trkpt lat="47.19949" lon="4.96092">
        <ele>290</ele>
        <time>2021-10-14T07:47:43Z</time>
      </trkpt>
      <trkpt lat="47.19958" lon="4.96071">
        <ele>290</ele>
        <time>2021-10-14T07:47:59Z</time>
      </trkpt>
      <trkpt lat="47.19961" lon="4.96064">
        <ele>290</ele>
        <time>2021-10-14T07:48:05Z</time>
      </trkpt>
      <trkpt lat="47.19965" lon="4.96057">
        <ele>291</ele>
        <time>2021-10-14T07:48:11Z</time>
      </trkpt>
      <trkpt lat="47.19968" lon="4.9605">
        <ele>291</ele>
        <time>2021-10-14T07:48:15Z</time>
      </trkpt>
      <trkpt lat="47.19972" lon="4.96043">
        <ele>291</ele>
        <time>2021-10-14T07:48:21Z</time>
      </trkpt>
      <trkpt lat="47.19974" lon="4.96035">
        <ele>292</ele>
        <time>2021-10-14T07:48:27Z</time>
      </trkpt>
      <trkpt lat="47.19976" lon="4.96017">
        <ele>292</ele>
        <time>2021-10-14T07:48:38Z</time>
      </trkpt>
      <trkpt lat="47.19984" lon="4.95992">
        <ele>294</ele>
        <time>2021-10-14T07:48:55Z</time>
      </trkpt>
      <trkpt lat="47.19988" lon="4.95984">
        <ele>294</ele>
        <time>2021-10-14T07:49:00Z</time>
      </trkpt>
      <trkpt lat="47.19997" lon="4.95952">
        <ele>296</ele>
        <time>2021-10-14T07:49:21Z</time>
      </trkpt>
      <trkpt lat="47.20001" lon="4.95944">
        <ele>297</ele>
        <time>2021-10-14T07:49:27Z</time>
      </trkpt>
      <trkpt lat="47.20008" lon="4.95929">
        <ele>298</ele>
        <time>2021-10-14T07:49:38Z</time>
      </trkpt>
      <trkpt lat="47.20011" lon="4.95921">
        <ele>299</ele>
        <time>2021-10-14T07:49:44Z</time>
      </trkpt>
      <trkpt lat="47.20011" lon="4.95913">
        <ele>300</ele>
        <time>2021-10-14T07:49:49Z</time>
      </trkpt>
      <trkpt lat="47.20012" lon="4.95903">
        <ele>300</ele>
        <time>2021-10-14T07:49:54Z</time>
      </trkpt>
      <trkpt lat="47.20014" lon="4.95881">
        <ele>302</ele>
        <time>2021-10-14T07:50:10Z</time>
      </trkpt>
      <trkpt lat="47.20013" lon="4.95872">
        <ele>303</ele>
        <time>2021-10-14T07:50:16Z</time>
      </trkpt>
      <trkpt lat="47.20015" lon="4.95851">
        <ele>304</ele>
        <time>2021-10-14T07:50:30Z</time>
      </trkpt>
      <trkpt lat="47.20018" lon="4.95842">
        <ele>304</ele>
        <time>2021-10-14T07:50:36Z</time>
      </trkpt>
      <trkpt lat="47.20024" lon="4.95816">
        <ele>306</ele>
        <time>2021-10-14T07:50:52Z</time>
      </trkpt>
      <trkpt lat="47.20022" lon="4.9578">
        <ele>308</ele>
        <time>2021-10-14T07:51:14Z</time>
      </trkpt>
      <trkpt lat="47.20023" lon="4.95771">
        <ele>308</ele>
        <time>2021-10-14T07:51:19Z</time>
      </trkpt>
      <trkpt lat="47.20021" lon="4.95762">
        <ele>309</ele>
        <time>2021-10-14T07:51:24Z</time>
      </trkpt>
      <trkpt lat="47.20017" lon="4.95739">
        <ele>310</ele>
        <time>2021-10-14T07:51:38Z</time>
      </trkpt>
      <trkpt lat="47.20017" lon="4.95728">
        <ele>311</ele>
        <time>2021-10-14T07:51:44Z</time>
      </trkpt>
      <trkpt lat="47.20014" lon="4.9572">
        <ele>311</ele>
        <time>2021-10-14T07:51:50Z</time>
      </trkpt>
      <trkpt lat="47.20011" lon="4.95713">
        <ele>311</ele>
        <time>2021-10-14T07:51:55Z</time>
      </trkpt>
      <trkpt lat="47.20006" lon="4.95709">
        <ele>312</ele>
        <time>2021-10-14T07:51:59Z</time>
      </trkpt>
      <trkpt lat="47.19998" lon="4.9571">
        <ele>313</ele>
        <time>2021-10-14T07:52:08Z</time>
      </trkpt>
      <trkpt lat="47.19995" lon="4.95716">
        <ele>313</ele>
        <time>2021-10-14T07:52:38Z</time>
      </trkpt>
      <trkpt lat="47.19985" lon="4.9572">
        <ele>312</ele>
        <time>2021-10-14T07:55:49Z</time>
      </trkpt>
      <trkpt lat="47.19979" lon="4.95721">
        <ele>312</ele>
        <time>2021-10-14T07:55:55Z</time>
      </trkpt>
      <trkpt lat="47.19959" lon="4.95726">
        <ele>314</ele>
        <time>2021-10-14T07:56:18Z</time>
      </trkpt>
      <trkpt lat="47.19946" lon="4.95724">
        <ele>316</ele>
        <time>2021-10-14T07:56:30Z</time>
      </trkpt>
      <trkpt lat="47.19937" lon="4.95727">
        <ele>317</ele>
        <time>2021-10-14T07:56:40Z</time>
      </trkpt>
      <trkpt lat="47.19929" lon="4.95725">
        <ele>318</ele>
        <time>2021-10-14T07:56:48Z</time>
      </trkpt>
      <trkpt lat="47.19919" lon="4.95724">
        <ele>320</ele>
        <time>2021-10-14T07:56:57Z</time>
      </trkpt>
      <trkpt lat="47.19913" lon="4.95723">
        <ele>320</ele>
        <time>2021-10-14T07:57:02Z</time>
      </trkpt>
      <trkpt lat="47.199" lon="4.95719">
        <ele>320</ele>
        <time>2021-10-14T07:57:13Z</time>
      </trkpt>
      <trkpt lat="47.19865" lon="4.95722">
        <ele>322</ele>
        <time>2021-10-14T07:57:41Z</time>
      </trkpt>
      <trkpt lat="47.19859" lon="4.95721">
        <ele>322</ele>
        <time>2021-10-14T07:57:46Z</time>
      </trkpt>
      <trkpt lat="47.19854" lon="4.95723">
        <ele>324</ele>
        <time>2021-10-14T07:57:51Z</time>
      </trkpt>
      <trkpt lat="47.19848" lon="4.95726">
        <ele>324</ele>
        <time>2021-10-14T07:57:57Z</time>
      </trkpt>
      <trkpt lat="47.19836" lon="4.9573">
        <ele>325</ele>
        <time>2021-10-14T07:58:07Z</time>
      </trkpt>
      <trkpt lat="47.19831" lon="4.95733">
        <ele>326</ele>
        <time>2021-10-14T07:58:21Z</time>
      </trkpt>
      <trkpt lat="47.19825" lon="4.95731">
        <ele>326</ele>
        <time>2021-10-14T07:58:46Z</time>
      </trkpt>
      <trkpt lat="47.19801" lon="4.95729">
        <ele>327</ele>
        <time>2021-10-14T07:59:25Z</time>
      </trkpt>
      <trkpt lat="47.19795" lon="4.95729">
        <ele>327</ele>
        <time>2021-10-14T07:59:30Z</time>
      </trkpt>
      <trkpt lat="47.19789" lon="4.95726">
        <ele>327</ele>
        <time>2021-10-14T07:59:35Z</time>
      </trkpt>
      <trkpt lat="47.19782" lon="4.95727">
        <ele>327</ele>
        <time>2021-10-14T07:59:39Z</time>
      </trkpt>
      <trkpt lat="47.19774" lon="4.95726">
        <ele>328</ele>
        <time>2021-10-14T07:59:46Z</time>
      </trkpt>
      <trkpt lat="47.19737" lon="4.9572">
        <ele>329</ele>
        <time>2021-10-14T08:00:31Z</time>
      </trkpt>
      <trkpt lat="47.1972" lon="4.95715">
        <ele>330</ele>
        <time>2021-10-14T08:00:49Z</time>
      </trkpt>
      <trkpt lat="47.19709" lon="4.95715">
        <ele>330</ele>
        <time>2021-10-14T08:00:57Z</time>
      </trkpt>
      <trkpt lat="47.19706" lon="4.95711">
        <ele>330</ele>
        <time>2021-10-14T08:01:01Z</time>
      </trkpt>
      <trkpt lat="47.19705" lon="4.95705">
        <ele>330</ele>
        <time>2021-10-14T08:01:05Z</time>
      </trkpt>
      <trkpt lat="47.19709" lon="4.95663">
        <ele>339</ele>
        <time>2021-10-14T08:01:41Z</time>
      </trkpt>
      <trkpt lat="47.1971" lon="4.95636">
        <ele>344</ele>
        <time>2021-10-14T08:02:05Z</time>
      </trkpt>
      <trkpt lat="47.19712" lon="4.95623">
        <ele>346</ele>
        <time>2021-10-14T08:02:17Z</time>
      </trkpt>
      <trkpt lat="47.1971" lon="4.95585">
        <ele>353</ele>
        <time>2021-10-14T08:02:51Z</time>
      </trkpt>
      <trkpt lat="47.19709" lon="4.95574">
        <ele>355</ele>
        <time>2021-10-14T08:03:03Z</time>
      </trkpt>
      <trkpt lat="47.19711" lon="4.95561">
        <ele>356</ele>
        <time>2021-10-14T08:03:40Z</time>
      </trkpt>
      <trkpt lat="47.19711" lon="4.95559">
        <ele>358</ele>
        <time>2021-10-14T08:05:28Z</time>
      </trkpt>
      <trkpt lat="47.197" lon="4.95558">
        <ele>358</ele>
        <time>2021-10-14T08:06:49Z</time>
      </trkpt>
      <trkpt lat="47.19679" lon="4.95547">
        <ele>359</ele>
        <time>2021-10-14T08:07:11Z</time>
      </trkpt>
      <trkpt lat="47.19672" lon="4.95544">
        <ele>359</ele>
        <time>2021-10-14T08:07:17Z</time>
      </trkpt>
      <trkpt lat="47.19664" lon="4.95541">
        <ele>360</ele>
        <time>2021-10-14T08:07:25Z</time>
      </trkpt>
      <trkpt lat="47.19653" lon="4.95536">
        <ele>360</ele>
        <time>2021-10-14T08:07:36Z</time>
      </trkpt>
      <trkpt lat="47.19638" lon="4.95527">
        <ele>361</ele>
        <time>2021-10-14T08:07:52Z</time>
      </trkpt>
      <trkpt lat="47.19633" lon="4.95524">
        <ele>361</ele>
        <time>2021-10-14T08:07:57Z</time>
      </trkpt>
      <trkpt lat="47.19626" lon="4.95522">
        <ele>361</ele>
        <time>2021-10-14T08:08:04Z</time>
      </trkpt>
      <trkpt lat="47.1962" lon="4.95519">
        <ele>361</ele>
        <time>2021-10-14T08:08:09Z</time>
      </trkpt>
      <trkpt lat="47.19615" lon="4.95516">
        <ele>361</ele>
        <time>2021-10-14T08:08:14Z</time>
      </trkpt>
      <trkpt lat="47.19609" lon="4.95513">
        <ele>361</ele>
        <time>2021-10-14T08:08:19Z</time>
      </trkpt>
      <trkpt lat="47.19604" lon="4.9551">
        <ele>362</ele>
        <time>2021-10-14T08:08:24Z</time>
      </trkpt>
      <trkpt lat="47.19587" lon="4.95498">
        <ele>362</ele>
        <time>2021-10-14T08:08:43Z</time>
      </trkpt>
      <trkpt lat="47.19569" lon="4.95488">
        <ele>361</ele>
        <time>2021-10-14T08:08:58Z</time>
      </trkpt>
      <trkpt lat="47.19556" lon="4.95467">
        <ele>364</ele>
        <time>2021-10-14T08:09:20Z</time>
      </trkpt>
      <trkpt lat="47.19552" lon="4.95455">
        <ele>364</ele>
        <time>2021-10-14T08:09:31Z</time>
      </trkpt>
      <trkpt lat="47.19545" lon="4.95448">
        <ele>366</ele>
        <time>2021-10-14T08:09:44Z</time>
      </trkpt>
      <trkpt lat="47.19532" lon="4.95436">
        <ele>367</ele>
        <time>2021-10-14T08:09:59Z</time>
      </trkpt>
      <trkpt lat="47.19522" lon="4.95429">
        <ele>367</ele>
        <time>2021-10-14T08:10:06Z</time>
      </trkpt>
      <trkpt lat="47.19514" lon="4.95423">
        <ele>367</ele>
        <time>2021-10-14T08:10:15Z</time>
      </trkpt>
      <trkpt lat="47.19488" lon="4.95403">
        <ele>367</ele>
        <time>2021-10-14T08:10:43Z</time>
      </trkpt>
      <trkpt lat="47.19471" lon="4.95395">
        <ele>367</ele>
        <time>2021-10-14T08:10:58Z</time>
      </trkpt>
      <trkpt lat="47.19461" lon="4.95386">
        <ele>367</ele>
        <time>2021-10-14T08:11:07Z</time>
      </trkpt>
      <trkpt lat="47.19456" lon="4.95382">
        <ele>367</ele>
        <time>2021-10-14T08:11:12Z</time>
      </trkpt>
      <trkpt lat="47.19445" lon="4.95377">
        <ele>367</ele>
        <time>2021-10-14T08:11:21Z</time>
      </trkpt>
      <trkpt lat="47.19435" lon="4.95368">
        <ele>366</ele>
        <time>2021-10-14T08:11:32Z</time>
      </trkpt>
      <trkpt lat="47.19412" lon="4.95328">
        <ele>369</ele>
        <time>2021-10-14T08:12:04Z</time>
      </trkpt>
      <trkpt lat="47.19407" lon="4.95322">
        <ele>369</ele>
        <time>2021-10-14T08:12:09Z</time>
      </trkpt>
      <trkpt lat="47.19403" lon="4.95316">
        <ele>369</ele>
        <time>2021-10-14T08:12:14Z</time>
      </trkpt>
      <trkpt lat="47.19399" lon="4.95311">
        <ele>370</ele>
        <time>2021-10-14T08:12:18Z</time>
      </trkpt>
      <trkpt lat="47.19391" lon="4.95294">
        <ele>372</ele>
        <time>2021-10-14T08:12:32Z</time>
      </trkpt>
      <trkpt lat="47.19386" lon="4.95288">
        <ele>372</ele>
        <time>2021-10-14T08:12:36Z</time>
      </trkpt>
      <trkpt lat="47.19381" lon="4.95284">
        <ele>372</ele>
        <time>2021-10-14T08:12:41Z</time>
      </trkpt>
      <trkpt lat="47.19376" lon="4.9527">
        <ele>373</ele>
        <time>2021-10-14T08:12:51Z</time>
      </trkpt>
      <trkpt lat="47.1937" lon="4.95267">
        <ele>373</ele>
        <time>2021-10-14T08:12:55Z</time>
      </trkpt>
      <trkpt lat="47.19362" lon="4.95256">
        <ele>374</ele>
        <time>2021-10-14T08:13:05Z</time>
      </trkpt>
      <trkpt lat="47.1934" lon="4.95218">
        <ele>376</ele>
        <time>2021-10-14T08:13:35Z</time>
      </trkpt>
      <trkpt lat="47.1933" lon="4.95203">
        <ele>377</ele>
        <time>2021-10-14T08:13:47Z</time>
      </trkpt>
      <trkpt lat="47.1932" lon="4.95196">
        <ele>377</ele>
        <time>2021-10-14T08:13:58Z</time>
      </trkpt>
      <trkpt lat="47.19317" lon="4.9519">
        <ele>377</ele>
        <time>2021-10-14T08:14:03Z</time>
      </trkpt>
      <trkpt lat="47.19304" lon="4.95183">
        <ele>378</ele>
        <time>2021-10-14T08:14:15Z</time>
      </trkpt>
      <trkpt lat="47.19297" lon="4.95182">
        <ele>378</ele>
        <time>2021-10-14T08:14:21Z</time>
      </trkpt>
      <trkpt lat="47.19285" lon="4.95175">
        <ele>377</ele>
        <time>2021-10-14T08:14:33Z</time>
      </trkpt>
      <trkpt lat="47.19277" lon="4.95172">
        <ele>377</ele>
        <time>2021-10-14T08:14:41Z</time>
      </trkpt>
      <trkpt lat="47.19262" lon="4.95166">
        <ele>376</ele>
        <time>2021-10-14T08:14:57Z</time>
      </trkpt>
      <trkpt lat="47.19258" lon="4.9516">
        <ele>376</ele>
        <time>2021-10-14T08:15:02Z</time>
      </trkpt>
      <trkpt lat="47.19242" lon="4.95149">
        <ele>375</ele>
        <time>2021-10-14T08:15:19Z</time>
      </trkpt>
      <trkpt lat="47.19236" lon="4.95147">
        <ele>375</ele>
        <time>2021-10-14T08:15:25Z</time>
      </trkpt>
      <trkpt lat="47.1923" lon="4.95144">
        <ele>375</ele>
        <time>2021-10-14T08:15:30Z</time>
      </trkpt>
      <trkpt lat="47.19214" lon="4.95128">
        <ele>374</ele>
        <time>2021-10-14T08:15:48Z</time>
      </trkpt>
      <trkpt lat="47.19198" lon="4.95117">
        <ele>373</ele>
        <time>2021-10-14T08:16:03Z</time>
      </trkpt>
      <trkpt lat="47.19193" lon="4.95112">
        <ele>373</ele>
        <time>2021-10-14T08:16:08Z</time>
      </trkpt>
      <trkpt lat="47.19187" lon="4.95109">
        <ele>373</ele>
        <time>2021-10-14T08:16:13Z</time>
      </trkpt>
      <trkpt lat="47.19181" lon="4.95106">
        <ele>373</ele>
        <time>2021-10-14T08:16:18Z</time>
      </trkpt>
      <trkpt lat="47.19175" lon="4.95102">
        <ele>372</ele>
        <time>2021-10-14T08:16:23Z</time>
      </trkpt>
      <trkpt lat="47.19171" lon="4.95096">
        <ele>372</ele>
        <time>2021-10-14T08:16:29Z</time>
      </trkpt>
      <trkpt lat="47.19134" lon="4.95078">
        <ele>371</ele>
        <time>2021-10-14T08:17:16Z</time>
      </trkpt>
      <trkpt lat="47.19125" lon="4.95078">
        <ele>371</ele>
        <time>2021-10-14T08:17:24Z</time>
      </trkpt>
      <trkpt lat="47.1911" lon="4.95081">
        <ele>369</ele>
        <time>2021-10-14T08:17:46Z</time>
      </trkpt>
      <trkpt lat="47.19087" lon="4.95093">
        <ele>367</ele>
        <time>2021-10-14T08:18:16Z</time>
      </trkpt>
      <trkpt lat="47.19062" lon="4.95113">
        <ele>362</ele>
        <time>2021-10-14T08:18:45Z</time>
      </trkpt>
      <trkpt lat="47.19027" lon="4.95124">
        <ele>359</ele>
        <time>2021-10-14T08:19:17Z</time>
      </trkpt>
      <trkpt lat="47.18992" lon="4.95141">
        <ele>354</ele>
        <time>2021-10-14T08:19:51Z</time>
      </trkpt>
      <trkpt lat="47.18985" lon="4.95143">
        <ele>353</ele>
        <time>2021-10-14T08:19:59Z</time>
      </trkpt>
      <trkpt lat="47.18973" lon="4.95149">
        <ele>352</ele>
        <time>2021-10-14T08:20:14Z</time>
      </trkpt>
      <trkpt lat="47.18967" lon="4.95157">
        <ele>351</ele>
        <time>2021-10-14T08:20:24Z</time>
      </trkpt>
      <trkpt lat="47.18961" lon="4.95153">
        <ele>351</ele>
        <time>2021-10-14T08:20:55Z</time>
      </trkpt>
      <trkpt lat="47.1896" lon="4.95158">
        <ele>351</ele>
        <time>2021-10-14T08:23:11Z</time>
      </trkpt>
      <trkpt lat="47.18954" lon="4.95156">
        <ele>350</ele>
        <time>2021-10-14T08:23:54Z</time>
      </trkpt>
      <trkpt lat="47.18941" lon="4.95157">
        <ele>349</ele>
        <time>2021-10-14T08:24:31Z</time>
      </trkpt>
      <trkpt lat="47.18923" lon="4.95154">
        <ele>347</ele>
        <time>2021-10-14T08:24:49Z</time>
      </trkpt>
      <trkpt lat="47.18911" lon="4.95162">
        <ele>345</ele>
        <time>2021-10-14T08:25:03Z</time>
      </trkpt>
      <trkpt lat="47.18905" lon="4.95164">
        <ele>344</ele>
        <time>2021-10-14T08:25:09Z</time>
      </trkpt>
      <trkpt lat="47.18894" lon="4.95174">
        <ele>342</ele>
        <time>2021-10-14T08:25:22Z</time>
      </trkpt>
      <trkpt lat="47.18888" lon="4.95175">
        <ele>341</ele>
        <time>2021-10-14T08:25:28Z</time>
      </trkpt>
      <trkpt lat="47.18883" lon="4.95174">
        <ele>341</ele>
        <time>2021-10-14T08:25:37Z</time>
      </trkpt>
      <trkpt lat="47.18864" lon="4.95178">
        <ele>339</ele>
        <time>2021-10-14T08:25:56Z</time>
      </trkpt>
      <trkpt lat="47.18859" lon="4.95177">
        <ele>339</ele>
        <time>2021-10-14T08:26:01Z</time>
      </trkpt>
      <trkpt lat="47.18843" lon="4.95178">
        <ele>337</ele>
        <time>2021-10-14T08:26:20Z</time>
      </trkpt>
      <trkpt lat="47.18837" lon="4.9518">
        <ele>336</ele>
        <time>2021-10-14T08:26:26Z</time>
      </trkpt>
      <trkpt lat="47.18821" lon="4.95186">
        <ele>333</ele>
        <time>2021-10-14T08:27:03Z</time>
      </trkpt>
      <trkpt lat="47.18807" lon="4.95185">
        <ele>330</ele>
        <time>2021-10-14T08:28:02Z</time>
      </trkpt>
      <trkpt lat="47.18793" lon="4.95185">
        <ele>327</ele>
        <time>2021-10-14T08:28:35Z</time>
      </trkpt>
      <trkpt lat="47.18786" lon="4.95187">
        <ele>326</ele>
        <time>2021-10-14T08:28:42Z</time>
      </trkpt>
      <trkpt lat="47.18747" lon="4.95178">
        <ele>320</ele>
        <time>2021-10-14T08:29:17Z</time>
      </trkpt>
      <trkpt lat="47.18711" lon="4.95162">
        <ele>313</ele>
        <time>2021-10-14T08:29:48Z</time>
      </trkpt>
      <trkpt lat="47.18702" lon="4.95152">
        <ele>310</ele>
        <time>2021-10-14T08:29:57Z</time>
      </trkpt>
      <trkpt lat="47.18697" lon="4.95146">
        <ele>310</ele>
        <time>2021-10-14T08:30:02Z</time>
      </trkpt>
      <trkpt lat="47.18681" lon="4.95099">
        <ele>306</ele>
        <time>2021-10-14T08:30:31Z</time>
      </trkpt>
      <trkpt lat="47.18681" lon="4.95088">
        <ele>305</ele>
        <time>2021-10-14T08:30:38Z</time>
      </trkpt>
      <trkpt lat="47.18667" lon="4.95057">
        <ele>300</ele>
        <time>2021-10-14T08:30:59Z</time>
      </trkpt>
      <trkpt lat="47.18664" lon="4.95047">
        <ele>299</ele>
        <time>2021-10-14T08:31:04Z</time>
      </trkpt>
      <trkpt lat="47.18661" lon="4.95014">
        <ele>294</ele>
        <time>2021-10-14T08:31:31Z</time>
      </trkpt>
      <trkpt lat="47.18653" lon="4.95006">
        <ele>292</ele>
        <time>2021-10-14T08:31:39Z</time>
      </trkpt>
      <trkpt lat="47.18646" lon="4.95006">
        <ele>291</ele>
        <time>2021-10-14T08:31:45Z</time>
      </trkpt>
      <trkpt lat="47.18641" lon="4.9501">
        <ele>289</ele>
        <time>2021-10-14T08:31:53Z</time>
      </trkpt>
      <trkpt lat="47.18622" lon="4.95005">
        <ele>285</ele>
        <time>2021-10-14T08:32:08Z</time>
      </trkpt>
      <trkpt lat="47.18616" lon="4.95007">
        <ele>282</ele>
        <time>2021-10-14T08:32:19Z</time>
      </trkpt>
      <trkpt lat="47.18607" lon="4.95009">
        <ele>281</ele>
        <time>2021-10-14T08:32:31Z</time>
      </trkpt>
      <trkpt lat="47.18602" lon="4.9501">
        <ele>281</ele>
        <time>2021-10-14T08:32:37Z</time>
      </trkpt>
      <trkpt lat="47.18596" lon="4.95009">
        <ele>280</ele>
        <time>2021-10-14T08:32:43Z</time>
      </trkpt>
      <trkpt lat="47.18589" lon="4.9501">
        <ele>281</ele>
        <time>2021-10-14T08:32:48Z</time>
      </trkpt>
      <trkpt lat="47.18582" lon="4.95012">
        <ele>281</ele>
        <time>2021-10-14T08:32:58Z</time>
      </trkpt>
      <trkpt lat="47.18577" lon="4.95019">
        <ele>281</ele>
        <time>2021-10-14T08:33:11Z</time>
      </trkpt>
      <trkpt lat="47.18562" lon="4.95027">
        <ele>281</ele>
        <time>2021-10-14T08:33:35Z</time>
      </trkpt>
      <trkpt lat="47.1853" lon="4.9503">
        <ele>285</ele>
        <time>2021-10-14T08:34:21Z</time>
      </trkpt>
      <trkpt lat="47.18526" lon="4.95035">
        <ele>285</ele>
        <time>2021-10-14T08:34:26Z</time>
      </trkpt>
      <trkpt lat="47.18524" lon="4.95044">
        <ele>285</ele>
        <time>2021-10-14T08:34:34Z</time>
      </trkpt>
      <trkpt lat="47.18523" lon="4.95057">
        <ele>285</ele>
        <time>2021-10-14T08:34:46Z</time>
      </trkpt>
      <trkpt lat="47.18513" lon="4.95095">
        <ele>286</ele>
        <time>2021-10-14T08:35:22Z</time>
      </trkpt>
      <trkpt lat="47.18501" lon="4.95151">
        <ele>285</ele>
        <time>2021-10-14T08:35:56Z</time>
      </trkpt>
      <trkpt lat="47.185" lon="4.95159">
        <ele>284</ele>
        <time>2021-10-14T08:36:02Z</time>
      </trkpt>
      <trkpt lat="47.18502" lon="4.95176">
        <ele>284</ele>
        <time>2021-10-14T08:36:12Z</time>
      </trkpt>
      <trkpt lat="47.18502" lon="4.95187">
        <ele>283</ele>
        <time>2021-10-14T08:36:25Z</time>
      </trkpt>
      <trkpt lat="47.185" lon="4.95185">
        <ele>282</ele>
        <time>2021-10-14T08:39:25Z</time>
      </trkpt>
      <trkpt lat="47.185" lon="4.95171">
        <ele>283</ele>
        <time>2021-10-14T08:39:37Z</time>
      </trkpt>
      <trkpt lat="47.18496" lon="4.95161">
        <ele>284</ele>
        <time>2021-10-14T08:39:44Z</time>
      </trkpt>
      <trkpt lat="47.18483" lon="4.95154">
        <ele>284</ele>
        <time>2021-10-14T08:39:56Z</time>
      </trkpt>
      <trkpt lat="47.18478" lon="4.95153">
        <ele>284</ele>
        <time>2021-10-14T08:40:01Z</time>
      </trkpt>
      <trkpt lat="47.18463" lon="4.95158">
        <ele>284</ele>
        <time>2021-10-14T08:40:18Z</time>
      </trkpt>
      <trkpt lat="47.18449" lon="4.95161">
        <ele>284</ele>
        <time>2021-10-14T08:40:34Z</time>
      </trkpt>
      <trkpt lat="47.18443" lon="4.95161">
        <ele>284</ele>
        <time>2021-10-14T08:40:40Z</time>
      </trkpt>
      <trkpt lat="47.18437" lon="4.95158">
        <ele>284</ele>
        <time>2021-10-14T08:40:45Z</time>
      </trkpt>
      <trkpt lat="47.18431" lon="4.95159">
        <ele>283</ele>
        <time>2021-10-14T08:40:49Z</time>
      </trkpt>
      <trkpt lat="47.1841" lon="4.95156">
        <ele>284</ele>
        <time>2021-10-14T08:41:07Z</time>
      </trkpt>
      <trkpt lat="47.18396" lon="4.95156">
        <ele>284</ele>
        <time>2021-10-14T08:41:17Z</time>
      </trkpt>
      <trkpt lat="47.18391" lon="4.95154">
        <ele>284</ele>
        <time>2021-10-14T08:41:21Z</time>
      </trkpt>
      <trkpt lat="47.18385" lon="4.95155">
        <ele>284</ele>
        <time>2021-10-14T08:41:25Z</time>
      </trkpt>
      <trkpt lat="47.1838" lon="4.95154">
        <ele>284</ele>
        <time>2021-10-14T08:41:30Z</time>
      </trkpt>
      <trkpt lat="47.18374" lon="4.95156">
        <ele>284</ele>
        <time>2021-10-14T08:41:35Z</time>
      </trkpt>
      <trkpt lat="47.18369" lon="4.95156">
        <ele>284</ele>
        <time>2021-10-14T08:41:40Z</time>
      </trkpt>
      <trkpt lat="47.18352" lon="4.95162">
        <ele>285</ele>
        <time>2021-10-14T08:41:58Z</time>
      </trkpt>
      <trkpt lat="47.18327" lon="4.95164">
        <ele>286</ele>
        <time>2021-10-14T08:42:17Z</time>
      </trkpt>
      <trkpt lat="47.18322" lon="4.95167">
        <ele>287</ele>
        <time>2021-10-14T08:42:23Z</time>
      </trkpt>
      <trkpt lat="47.18309" lon="4.95171">
        <ele>287</ele>
        <time>2021-10-14T08:42:34Z</time>
      </trkpt>
      <trkpt lat="47.18303" lon="4.95174">
        <ele>287</ele>
        <time>2021-10-14T08:42:39Z</time>
      </trkpt>
      <trkpt lat="47.18298" lon="4.95184">
        <ele>287</ele>
        <time>2021-10-14T08:42:47Z</time>
      </trkpt>
      <trkpt lat="47.18295" lon="4.95191">
        <ele>287</ele>
        <time>2021-10-14T08:42:52Z</time>
      </trkpt>
      <trkpt lat="47.18288" lon="4.95203">
        <ele>287</ele>
        <time>2021-10-14T08:43:00Z</time>
      </trkpt>
      <trkpt lat="47.18284" lon="4.9522">
        <ele>286</ele>
        <time>2021-10-14T08:43:09Z</time>
      </trkpt>
      <trkpt lat="47.18285" lon="4.95228">
        <ele>286</ele>
        <time>2021-10-14T08:43:13Z</time>
      </trkpt>
      <trkpt lat="47.18281" lon="4.95239">
        <ele>285</ele>
        <time>2021-10-14T08:43:21Z</time>
      </trkpt>
      <trkpt lat="47.18278" lon="4.95245">
        <ele>285</ele>
        <time>2021-10-14T08:43:26Z</time>
      </trkpt>
      <trkpt lat="47.18272" lon="4.95283">
        <ele>284</ele>
        <time>2021-10-14T08:43:49Z</time>
      </trkpt>
      <trkpt lat="47.18272" lon="4.95301">
        <ele>283</ele>
        <time>2021-10-14T08:43:59Z</time>
      </trkpt>
      <trkpt lat="47.18262" lon="4.95344">
        <ele>281</ele>
        <time>2021-10-14T08:44:22Z</time>
      </trkpt>
      <trkpt lat="47.18262" lon="4.95352">
        <ele>281</ele>
        <time>2021-10-14T08:44:27Z</time>
      </trkpt>
      <trkpt lat="47.18257" lon="4.9537">
        <ele>280</ele>
        <time>2021-10-14T08:44:37Z</time>
      </trkpt>
      <trkpt lat="47.18255" lon="4.95388">
        <ele>280</ele>
        <time>2021-10-14T08:44:47Z</time>
      </trkpt>
      <trkpt lat="47.1825" lon="4.95396">
        <ele>279</ele>
        <time>2021-10-14T08:44:52Z</time>
      </trkpt>
      <trkpt lat="47.18244" lon="4.95454">
        <ele>278</ele>
        <time>2021-10-14T08:45:26Z</time>
      </trkpt>
      <trkpt lat="47.18243" lon="4.95462">
        <ele>278</ele>
        <time>2021-10-14T08:45:30Z</time>
      </trkpt>
      <trkpt lat="47.18241" lon="4.9547">
        <ele>278</ele>
        <time>2021-10-14T08:45:35Z</time>
      </trkpt>
      <trkpt lat="47.1824" lon="4.95488">
        <ele>278</ele>
        <time>2021-10-14T08:45:44Z</time>
      </trkpt>
      <trkpt lat="47.18228" lon="4.95547">
        <ele>277</ele>
        <time>2021-10-14T08:46:16Z</time>
      </trkpt>
      <trkpt lat="47.18226" lon="4.95556">
        <ele>277</ele>
        <time>2021-10-14T08:46:22Z</time>
      </trkpt>
      <trkpt lat="47.18225" lon="4.95565">
        <ele>277</ele>
        <time>2021-10-14T08:46:27Z</time>
      </trkpt>
      <trkpt lat="47.18222" lon="4.95573">
        <ele>277</ele>
        <time>2021-10-14T08:46:32Z</time>
      </trkpt>
      <trkpt lat="47.18221" lon="4.95582">
        <ele>277</ele>
        <time>2021-10-14T08:46:38Z</time>
      </trkpt>
      <trkpt lat="47.18213" lon="4.95595">
        <ele>277</ele>
        <time>2021-10-14T08:46:48Z</time>
      </trkpt>
      <trkpt lat="47.18207" lon="4.95613">
        <ele>277</ele>
        <time>2021-10-14T08:47:00Z</time>
      </trkpt>
      <trkpt lat="47.18195" lon="4.95642">
        <ele>276</ele>
        <time>2021-10-14T08:47:20Z</time>
      </trkpt>
      <trkpt lat="47.18194" lon="4.95651">
        <ele>276</ele>
        <time>2021-10-14T08:47:25Z</time>
      </trkpt>
      <trkpt lat="47.18196" lon="4.95657">
        <ele>276</ele>
        <time>2021-10-14T08:47:29Z</time>
      </trkpt>
      <trkpt lat="47.18201" lon="4.95663">
        <ele>276</ele>
        <time>2021-10-14T08:47:34Z</time>
      </trkpt>
      <trkpt lat="47.18205" lon="4.95667">
        <ele>276</ele>
        <time>2021-10-14T08:47:38Z</time>
      </trkpt>
      <trkpt lat="47.18219" lon="4.95681">
        <ele>275</ele>
        <time>2021-10-14T08:47:51Z</time>
      </trkpt>
      <trkpt lat="47.18224" lon="4.95686">
        <ele>275</ele>
        <time>2021-10-14T08:47:55Z</time>
      </trkpt>
      <trkpt lat="47.18231" lon="4.9569">
        <ele>274</ele>
        <time>2021-10-14T08:48:02Z</time>
      </trkpt>
      <trkpt lat="47.18243" lon="4.95704">
        <ele>274</ele>
        <time>2021-10-14T08:48:16Z</time>
      </trkpt>
      <trkpt lat="47.18238" lon="4.95711">
        <ele>273</ele>
        <time>2021-10-14T08:48:23Z</time>
      </trkpt>
      <trkpt lat="47.18233" lon="4.95714">
        <ele>273</ele>
        <time>2021-10-14T08:48:27Z</time>
      </trkpt>
      <trkpt lat="47.18228" lon="4.95718">
        <ele>273</ele>
        <time>2021-10-14T08:48:32Z</time>
      </trkpt>
      <trkpt lat="47.18217" lon="4.95724">
        <ele>273</ele>
        <time>2021-10-14T08:48:44Z</time>
      </trkpt>
      <trkpt lat="47.18208" lon="4.95735">
        <ele>272</ele>
        <time>2021-10-14T08:48:54Z</time>
      </trkpt>
      <trkpt lat="47.18203" lon="4.9574">
        <ele>272</ele>
        <time>2021-10-14T08:48:59Z</time>
      </trkpt>
      <trkpt lat="47.18198" lon="4.95744">
        <ele>272</ele>
        <time>2021-10-14T08:49:05Z</time>
      </trkpt>
      <trkpt lat="47.18193" lon="4.95749">
        <ele>272</ele>
        <time>2021-10-14T08:49:11Z</time>
      </trkpt>
      <trkpt lat="47.18177" lon="4.95763">
        <ele>272</ele>
        <time>2021-10-14T08:49:48Z</time>
      </trkpt>
      <trkpt lat="47.18171" lon="4.95765">
        <ele>272</ele>
        <time>2021-10-14T08:49:52Z</time>
      </trkpt>
      <trkpt lat="47.1816" lon="4.95758">
        <ele>272</ele>
        <time>2021-10-14T08:50:03Z</time>
      </trkpt>
      <trkpt lat="47.18155" lon="4.95753">
        <ele>273</ele>
        <time>2021-10-14T08:50:08Z</time>
      </trkpt>
      <trkpt lat="47.18145" lon="4.95743">
        <ele>273</ele>
        <time>2021-10-14T08:50:20Z</time>
      </trkpt>
      <trkpt lat="47.1814" lon="4.9574">
        <ele>274</ele>
        <time>2021-10-14T08:50:43Z</time>
      </trkpt>
      <trkpt lat="47.18107" lon="4.95723">
        <ele>275</ele>
        <time>2021-10-14T08:51:22Z</time>
      </trkpt>
      <trkpt lat="47.18078" lon="4.95706">
        <ele>276</ele>
        <time>2021-10-14T08:51:48Z</time>
      </trkpt>
      <trkpt lat="47.18073" lon="4.95704">
        <ele>276</ele>
        <time>2021-10-14T08:51:52Z</time>
      </trkpt>
      <trkpt lat="47.18035" lon="4.95677">
        <ele>277</ele>
        <time>2021-10-14T08:52:26Z</time>
      </trkpt>
      <trkpt lat="47.18002" lon="4.95652">
        <ele>278</ele>
        <time>2021-10-14T08:52:57Z</time>
      </trkpt>
      <trkpt lat="47.17997" lon="4.95648">
        <ele>278</ele>
        <time>2021-10-14T08:53:02Z</time>
      </trkpt>
      <trkpt lat="47.17992" lon="4.95642">
        <ele>278</ele>
        <time>2021-10-14T08:53:08Z</time>
      </trkpt>
      <trkpt lat="47.17986" lon="4.95637">
        <ele>278</ele>
        <time>2021-10-14T08:53:14Z</time>
      </trkpt>
      <trkpt lat="47.17981" lon="4.95633">
        <ele>278</ele>
        <time>2021-10-14T08:53:18Z</time>
      </trkpt>
      <trkpt lat="47.17976" lon="4.95631">
        <ele>278</ele>
        <time>2021-10-14T08:53:22Z</time>
      </trkpt>
      <trkpt lat="47.1797" lon="4.95629">
        <ele>278</ele>
        <time>2021-10-14T08:53:26Z</time>
      </trkpt>
      <trkpt lat="47.17957" lon="4.95627">
        <ele>277</ele>
        <time>2021-10-14T08:53:38Z</time>
      </trkpt>
      <trkpt lat="47.17943" lon="4.95624">
        <ele>277</ele>
        <time>2021-10-14T08:53:50Z</time>
      </trkpt>
      <trkpt lat="47.17925" lon="4.9562">
        <ele>276</ele>
        <time>2021-10-14T08:54:04Z</time>
      </trkpt>
      <trkpt lat="47.17918" lon="4.95618">
        <ele>276</ele>
        <time>2021-10-14T08:54:40Z</time>
      </trkpt>
      <trkpt lat="47.17907" lon="4.95613">
        <ele>276</ele>
        <time>2021-10-14T08:54:49Z</time>
      </trkpt>
      <trkpt lat="47.17897" lon="4.95603">
        <ele>275</ele>
        <time>2021-10-14T08:54:59Z</time>
      </trkpt>
      <trkpt lat="47.17865" lon="4.95584">
        <ele>274</ele>
        <time>2021-10-14T08:55:30Z</time>
      </trkpt>
      <trkpt lat="47.17855" lon="4.95577">
        <ele>274</ele>
        <time>2021-10-14T08:55:40Z</time>
      </trkpt>
      <trkpt lat="47.17847" lon="4.95571">
        <ele>274</ele>
        <time>2021-10-14T08:55:45Z</time>
      </trkpt>
      <trkpt lat="47.17843" lon="4.95567">
        <ele>273</ele>
        <time>2021-10-14T08:55:50Z</time>
      </trkpt>
      <trkpt lat="47.17826" lon="4.95553">
        <ele>273</ele>
        <time>2021-10-14T08:56:08Z</time>
      </trkpt>
      <trkpt lat="47.17814" lon="4.9555">
        <ele>272</ele>
        <time>2021-10-14T08:56:19Z</time>
      </trkpt>
      <trkpt lat="47.17808" lon="4.95547">
        <ele>273</ele>
        <time>2021-10-14T08:56:24Z</time>
      </trkpt>
      <trkpt lat="47.17773" lon="4.95527">
        <ele>272</ele>
        <time>2021-10-14T08:56:55Z</time>
      </trkpt>
      <trkpt lat="47.17762" lon="4.95521">
        <ele>271</ele>
        <time>2021-10-14T08:57:05Z</time>
      </trkpt>
      <trkpt lat="47.17735" lon="4.9551">
        <ele>271</ele>
        <time>2021-10-14T08:57:31Z</time>
      </trkpt>
      <trkpt lat="47.17729" lon="4.95509">
        <ele>273</ele>
        <time>2021-10-14T08:57:37Z</time>
      </trkpt>
      <trkpt lat="47.17724" lon="4.95508">
        <ele>272</ele>
        <time>2021-10-14T08:57:51Z</time>
      </trkpt>
      <trkpt lat="47.1771" lon="4.95501">
        <ele>270</ele>
        <time>2021-10-14T08:58:17Z</time>
      </trkpt>
      <trkpt lat="47.17701" lon="4.95497">
        <ele>269</ele>
        <time>2021-10-14T08:59:11Z</time>
      </trkpt>
      <trkpt lat="47.17691" lon="4.95489">
        <ele>268</ele>
        <time>2021-10-14T08:59:23Z</time>
      </trkpt>
      <trkpt lat="47.17686" lon="4.95485">
        <ele>268</ele>
        <time>2021-10-14T08:59:29Z</time>
      </trkpt>
      <trkpt lat="47.17673" lon="4.95481">
        <ele>267</ele>
        <time>2021-10-14T08:59:40Z</time>
      </trkpt>
      <trkpt lat="47.17667" lon="4.95484">
        <ele>266</ele>
        <time>2021-10-14T08:59:46Z</time>
      </trkpt>
      <trkpt lat="47.17661" lon="4.95484">
        <ele>266</ele>
        <time>2021-10-14T08:59:51Z</time>
      </trkpt>
      <trkpt lat="47.17644" lon="4.95491">
        <ele>264</ele>
        <time>2021-10-14T09:00:06Z</time>
      </trkpt>
      <trkpt lat="47.17639" lon="4.95496">
        <ele>264</ele>
        <time>2021-10-14T09:00:12Z</time>
      </trkpt>
      <trkpt lat="47.17634" lon="4.955">
        <ele>264</ele>
        <time>2021-10-14T09:00:16Z</time>
      </trkpt>
      <trkpt lat="47.17633" lon="4.9551">
        <ele>263</ele>
        <time>2021-10-14T09:00:24Z</time>
      </trkpt>
      <trkpt lat="47.17634" lon="4.95519">
        <ele>263</ele>
        <time>2021-10-14T09:00:29Z</time>
      </trkpt>
      <trkpt lat="47.17637" lon="4.95537">
        <ele>263</ele>
        <time>2021-10-14T09:00:40Z</time>
      </trkpt>
      <trkpt lat="47.17645" lon="4.95581">
        <ele>261</ele>
        <time>2021-10-14T09:01:05Z</time>
      </trkpt>
      <trkpt lat="47.17645" lon="4.95614">
        <ele>260</ele>
        <time>2021-10-14T09:01:26Z</time>
      </trkpt>
      <trkpt lat="47.17643" lon="4.95626">
        <ele>259</ele>
        <time>2021-10-14T09:01:36Z</time>
      </trkpt>
      <trkpt lat="47.17629" lon="4.95625">
        <ele>258</ele>
        <time>2021-10-14T09:01:55Z</time>
      </trkpt>
      <trkpt lat="47.17625" lon="4.9562">
        <ele>258</ele>
        <time>2021-10-14T09:02:01Z</time>
      </trkpt>
      <trkpt lat="47.1762" lon="4.95616">
        <ele>258</ele>
        <time>2021-10-14T09:02:05Z</time>
      </trkpt>
      <trkpt lat="47.17611" lon="4.95605">
        <ele>259</ele>
        <time>2021-10-14T09:02:15Z</time>
      </trkpt>
      <trkpt lat="47.17606" lon="4.95602">
        <ele>258</ele>
        <time>2021-10-14T09:02:21Z</time>
      </trkpt>
      <trkpt lat="47.17594" lon="4.95591">
        <ele>258</ele>
        <time>2021-10-14T09:02:35Z</time>
      </trkpt>
      <trkpt lat="47.17589" lon="4.95586">
        <ele>258</ele>
        <time>2021-10-14T09:02:40Z</time>
      </trkpt>
      <trkpt lat="47.17581" lon="4.9558">
        <ele>258</ele>
        <time>2021-10-14T09:02:54Z</time>
      </trkpt>
      <trkpt lat="47.17576" lon="4.95574">
        <ele>258</ele>
        <time>2021-10-14T09:02:59Z</time>
      </trkpt>
      <trkpt lat="47.17566" lon="4.95569">
        <ele>258</ele>
        <time>2021-10-14T09:03:10Z</time>
      </trkpt>
      <trkpt lat="47.17562" lon="4.95563">
        <ele>258</ele>
        <time>2021-10-14T09:03:18Z</time>
      </trkpt>
      <trkpt lat="47.17555" lon="4.95566">
        <ele>258</ele>
        <time>2021-10-14T09:03:54Z</time>
      </trkpt>
      <trkpt lat="47.17532" lon="4.95562">
        <ele>257</ele>
        <time>2021-10-14T09:04:24Z</time>
      </trkpt>
      <trkpt lat="47.17527" lon="4.95556">
        <ele>257</ele>
        <time>2021-10-14T09:04:29Z</time>
      </trkpt>
      <trkpt lat="47.1752" lon="4.95554">
        <ele>257</ele>
        <time>2021-10-14T09:04:49Z</time>
      </trkpt>
      <trkpt lat="47.17514" lon="4.95574">
        <ele>257</ele>
        <time>2021-10-14T09:07:12Z</time>
      </trkpt>
      <trkpt lat="47.17507" lon="4.95574">
        <ele>256</ele>
        <time>2021-10-14T09:08:36Z</time>
      </trkpt>
      <trkpt lat="47.17488" lon="4.95566">
        <ele>257</ele>
        <time>2021-10-14T09:08:58Z</time>
      </trkpt>
      <trkpt lat="47.17482" lon="4.95564">
        <ele>257</ele>
        <time>2021-10-14T09:09:04Z</time>
      </trkpt>
      <trkpt lat="47.17476" lon="4.95563">
        <ele>257</ele>
        <time>2021-10-14T09:09:09Z</time>
      </trkpt>
      <trkpt lat="47.1747" lon="4.95563">
        <ele>257</ele>
        <time>2021-10-14T09:09:17Z</time>
      </trkpt>
      <trkpt lat="47.17453" lon="4.95561">
        <ele>258</ele>
        <time>2021-10-14T09:09:34Z</time>
      </trkpt>
      <trkpt lat="47.17441" lon="4.95558">
        <ele>259</ele>
        <time>2021-10-14T09:09:45Z</time>
      </trkpt>
      <trkpt lat="47.17435" lon="4.95557">
        <ele>259</ele>
        <time>2021-10-14T09:09:51Z</time>
      </trkpt>
      <trkpt lat="47.17423" lon="4.95553">
        <ele>260</ele>
        <time>2021-10-14T09:10:02Z</time>
      </trkpt>
      <trkpt lat="47.17415" lon="4.95554">
        <ele>260</ele>
        <time>2021-10-14T09:10:11Z</time>
      </trkpt>
      <trkpt lat="47.17403" lon="4.95549">
        <ele>260</ele>
        <time>2021-10-14T09:10:21Z</time>
      </trkpt>
      <trkpt lat="47.17397" lon="4.95547">
        <ele>260</ele>
        <time>2021-10-14T09:10:26Z</time>
      </trkpt>
      <trkpt lat="47.1739" lon="4.95546">
        <ele>261</ele>
        <time>2021-10-14T09:10:31Z</time>
      </trkpt>
      <trkpt lat="47.17385" lon="4.95545">
        <ele>260</ele>
        <time>2021-10-14T09:10:36Z</time>
      </trkpt>
      <trkpt lat="47.17378" lon="4.95544">
        <ele>261</ele>
        <time>2021-10-14T09:10:42Z</time>
      </trkpt>
      <trkpt lat="47.1737" lon="4.95542">
        <ele>261</ele>
        <time>2021-10-14T09:10:51Z</time>
      </trkpt>
      <trkpt lat="47.17336" lon="4.95535">
        <ele>262</ele>
        <time>2021-10-14T09:11:21Z</time>
      </trkpt>
      <trkpt lat="47.17324" lon="4.95532">
        <ele>262</ele>
        <time>2021-10-14T09:11:31Z</time>
      </trkpt>
      <trkpt lat="47.17316" lon="4.95534">
        <ele>263</ele>
        <time>2021-10-14T09:11:41Z</time>
      </trkpt>
      <trkpt lat="47.17319" lon="4.95537">
        <ele>263</ele>
        <time>2021-10-14T09:11:59Z</time>
      </trkpt>
      <trkpt lat="47.17312" lon="4.95531">
        <ele>262</ele>
        <time>2021-10-14T09:12:33Z</time>
      </trkpt>
      <trkpt lat="47.17304" lon="4.95531">
        <ele>262</ele>
        <time>2021-10-14T09:12:38Z</time>
      </trkpt>
      <trkpt lat="47.17294" lon="4.95527">
        <ele>263</ele>
        <time>2021-10-14T09:12:45Z</time>
      </trkpt>
      <trkpt lat="47.17281" lon="4.95523">
        <ele>262</ele>
        <time>2021-10-14T09:12:55Z</time>
      </trkpt>
      <trkpt lat="47.17257" lon="4.95518">
        <ele>262</ele>
        <time>2021-10-14T09:13:15Z</time>
      </trkpt>
      <trkpt lat="47.17251" lon="4.95514">
        <ele>262</ele>
        <time>2021-10-14T09:13:21Z</time>
      </trkpt>
      <trkpt lat="47.17245" lon="4.95513">
        <ele>262</ele>
        <time>2021-10-14T09:13:26Z</time>
      </trkpt>
      <trkpt lat="47.1724" lon="4.95512">
        <ele>262</ele>
        <time>2021-10-14T09:13:31Z</time>
      </trkpt>
      <trkpt lat="47.17229" lon="4.95511">
        <ele>262</ele>
        <time>2021-10-14T09:13:39Z</time>
      </trkpt>
      <trkpt lat="47.17225" lon="4.95505">
        <ele>262</ele>
        <time>2021-10-14T09:13:44Z</time>
      </trkpt>
      <trkpt lat="47.17225" lon="4.95496">
        <ele>262</ele>
        <time>2021-10-14T09:13:51Z</time>
      </trkpt>
      <trkpt lat="47.17224" lon="4.95487">
        <ele>263</ele>
        <time>2021-10-14T09:13:56Z</time>
      </trkpt>
      <trkpt lat="47.17221" lon="4.9548">
        <ele>263</ele>
        <time>2021-10-14T09:14:01Z</time>
      </trkpt>
      <trkpt lat="47.17218" lon="4.95474">
        <ele>263</ele>
        <time>2021-10-14T09:14:05Z</time>
      </trkpt>
      <trkpt lat="47.17213" lon="4.95458">
        <ele>263</ele>
        <time>2021-10-14T09:14:15Z</time>
      </trkpt>
      <trkpt lat="47.17211" lon="4.95445">
        <ele>264</ele>
        <time>2021-10-14T09:14:27Z</time>
      </trkpt>
      <trkpt lat="47.17214" lon="4.95436">
        <ele>264</ele>
        <time>2021-10-14T09:14:33Z</time>
      </trkpt>
      <trkpt lat="47.17232" lon="4.95414">
        <ele>265</ele>
        <time>2021-10-14T09:14:54Z</time>
      </trkpt>
      <trkpt lat="47.17243" lon="4.95393">
        <ele>266</ele>
        <time>2021-10-14T09:15:09Z</time>
      </trkpt>
      <trkpt lat="47.17248" lon="4.95388">
        <ele>266</ele>
        <time>2021-10-14T09:15:14Z</time>
      </trkpt>
      <trkpt lat="47.17252" lon="4.95381">
        <ele>266</ele>
        <time>2021-10-14T09:15:18Z</time>
      </trkpt>
      <trkpt lat="47.17282" lon="4.95353">
        <ele>266</ele>
        <time>2021-10-14T09:15:47Z</time>
      </trkpt>
      <trkpt lat="47.17294" lon="4.9535">
        <ele>267</ele>
        <time>2021-10-14T09:15:56Z</time>
      </trkpt>
      <trkpt lat="47.173" lon="4.95348">
        <ele>267</ele>
        <time>2021-10-14T09:16:02Z</time>
      </trkpt>
      <trkpt lat="47.17305" lon="4.95344">
        <ele>267</ele>
        <time>2021-10-14T09:16:07Z</time>
      </trkpt>
      <trkpt lat="47.17312" lon="4.95338">
        <ele>267</ele>
        <time>2021-10-14T09:16:16Z</time>
      </trkpt>
      <trkpt lat="47.17317" lon="4.95333">
        <ele>268</ele>
        <time>2021-10-14T09:16:21Z</time>
      </trkpt>
      <trkpt lat="47.17323" lon="4.95323">
        <ele>267</ele>
        <time>2021-10-14T09:16:54Z</time>
      </trkpt>
      <trkpt lat="47.17324" lon="4.95307">
        <ele>267</ele>
        <time>2021-10-14T09:17:05Z</time>
      </trkpt>
      <trkpt lat="47.17329" lon="4.95285">
        <ele>267</ele>
        <time>2021-10-14T09:17:26Z</time>
      </trkpt>
      <trkpt lat="47.17328" lon="4.95277">
        <ele>268</ele>
        <time>2021-10-14T09:17:31Z</time>
      </trkpt>
      <trkpt lat="47.17325" lon="4.95251">
        <ele>269</ele>
        <time>2021-10-14T09:17:46Z</time>
      </trkpt>
      <trkpt lat="47.17322" lon="4.95244">
        <ele>269</ele>
        <time>2021-10-14T09:17:51Z</time>
      </trkpt>
      <trkpt lat="47.17316" lon="4.95187">
        <ele>271</ele>
        <time>2021-10-14T09:18:25Z</time>
      </trkpt>
      <trkpt lat="47.17315" lon="4.95179">
        <ele>271</ele>
        <time>2021-10-14T09:18:31Z</time>
      </trkpt>
      <trkpt lat="47.17315" lon="4.95164">
        <ele>271</ele>
        <time>2021-10-14T09:18:41Z</time>
      </trkpt>
      <trkpt lat="47.17307" lon="4.95137">
        <ele>272</ele>
        <time>2021-10-14T09:18:59Z</time>
      </trkpt>
      <trkpt lat="47.17305" lon="4.95126">
        <ele>272</ele>
        <time>2021-10-14T09:19:06Z</time>
      </trkpt>
      <trkpt lat="47.17305" lon="4.95107">
        <ele>273</ele>
        <time>2021-10-14T09:19:16Z</time>
      </trkpt>
      <trkpt lat="47.17307" lon="4.95098">
        <ele>273</ele>
        <time>2021-10-14T09:19:21Z</time>
      </trkpt>
      <trkpt lat="47.17311" lon="4.95064">
        <ele>274</ele>
        <time>2021-10-14T09:19:42Z</time>
      </trkpt>
      <trkpt lat="47.17316" lon="4.95052">
        <ele>275</ele>
        <time>2021-10-14T09:19:52Z</time>
      </trkpt>
      <trkpt lat="47.17318" lon="4.95045">
        <ele>275</ele>
        <time>2021-10-14T09:19:56Z</time>
      </trkpt>
      <trkpt lat="47.17319" lon="4.95034">
        <ele>275</ele>
        <time>2021-10-14T09:20:04Z</time>
      </trkpt>
      <trkpt lat="47.17318" lon="4.95026">
        <ele>275</ele>
        <time>2021-10-14T09:20:09Z</time>
      </trkpt>
      <trkpt lat="47.17319" lon="4.95018">
        <ele>275</ele>
        <time>2021-10-14T09:20:14Z</time>
      </trkpt>
      <trkpt lat="47.17318" lon="4.95009">
        <ele>275</ele>
        <time>2021-10-14T09:20:19Z</time>
      </trkpt>
      <trkpt lat="47.17314" lon="4.95001">
        <ele>275</ele>
        <time>2021-10-14T09:20:24Z</time>
      </trkpt>
      <trkpt lat="47.1731" lon="4.94995">
        <ele>275</ele>
        <time>2021-10-14T09:20:29Z</time>
      </trkpt>
      <trkpt lat="47.17298" lon="4.94986">
        <ele>275</ele>
        <time>2021-10-14T09:20:40Z</time>
      </trkpt>
      <trkpt lat="47.17293" lon="4.9498">
        <ele>276</ele>
        <time>2021-10-14T09:20:45Z</time>
      </trkpt>
      <trkpt lat="47.17287" lon="4.94977">
        <ele>275</ele>
        <time>2021-10-14T09:20:50Z</time>
      </trkpt>
      <trkpt lat="47.17279" lon="4.94964">
        <ele>276</ele>
        <time>2021-10-14T09:21:01Z</time>
      </trkpt>
      <trkpt lat="47.17273" lon="4.94954">
        <ele>277</ele>
        <time>2021-10-14T09:21:11Z</time>
      </trkpt>
      <trkpt lat="47.1727" lon="4.94943">
        <ele>277</ele>
        <time>2021-10-14T09:21:20Z</time>
      </trkpt>
      <trkpt lat="47.17261" lon="4.94917">
        <ele>278</ele>
        <time>2021-10-14T09:21:35Z</time>
      </trkpt>
      <trkpt lat="47.17238" lon="4.94882">
        <ele>279</ele>
        <time>2021-10-14T09:22:04Z</time>
      </trkpt>
      <trkpt lat="47.17232" lon="4.94878">
        <ele>280</ele>
        <time>2021-10-14T09:22:09Z</time>
      </trkpt>
      <trkpt lat="47.17224" lon="4.94869">
        <ele>280</ele>
        <time>2021-10-14T09:22:17Z</time>
      </trkpt>
      <trkpt lat="47.17213" lon="4.94863">
        <ele>281</ele>
        <time>2021-10-14T09:22:25Z</time>
      </trkpt>
      <trkpt lat="47.17203" lon="4.94862">
        <ele>281</ele>
        <time>2021-10-14T09:22:34Z</time>
      </trkpt>
      <trkpt lat="47.17198" lon="4.94859">
        <ele>282</ele>
        <time>2021-10-14T09:22:38Z</time>
      </trkpt>
      <trkpt lat="47.17156" lon="4.94862">
        <ele>283</ele>
        <time>2021-10-14T09:23:13Z</time>
      </trkpt>
      <trkpt lat="47.1715" lon="4.94863">
        <ele>283</ele>
        <time>2021-10-14T09:23:18Z</time>
      </trkpt>
      <trkpt lat="47.17142" lon="4.94861">
        <ele>283</ele>
        <time>2021-10-14T09:23:25Z</time>
      </trkpt>
      <trkpt lat="47.17136" lon="4.94863">
        <ele>283</ele>
        <time>2021-10-14T09:23:30Z</time>
      </trkpt>
      <trkpt lat="47.17118" lon="4.94864">
        <ele>283</ele>
        <time>2021-10-14T09:23:46Z</time>
      </trkpt>
      <trkpt lat="47.17112" lon="4.94864">
        <ele>283</ele>
        <time>2021-10-14T09:23:51Z</time>
      </trkpt>
      <trkpt lat="47.17106" lon="4.94862">
        <ele>283</ele>
        <time>2021-10-14T09:23:55Z</time>
      </trkpt>
      <trkpt lat="47.17102" lon="4.94854">
        <ele>283</ele>
        <time>2021-10-14T09:24:04Z</time>
      </trkpt>
      <trkpt lat="47.17098" lon="4.94846">
        <ele>284</ele>
        <time>2021-10-14T09:24:09Z</time>
      </trkpt>
      <trkpt lat="47.17096" lon="4.94838">
        <ele>284</ele>
        <time>2021-10-14T09:24:15Z</time>
      </trkpt>
      <trkpt lat="47.17095" lon="4.94829">
        <ele>284</ele>
        <time>2021-10-14T09:24:19Z</time>
      </trkpt>
      <trkpt lat="47.17093" lon="4.94822">
        <ele>285</ele>
        <time>2021-10-14T09:24:24Z</time>
      </trkpt>
      <trkpt lat="47.17088" lon="4.94814">
        <ele>286</ele>
        <time>2021-10-14T09:24:34Z</time>
      </trkpt>
      <trkpt lat="47.17085" lon="4.94806">
        <ele>287</ele>
        <time>2021-10-14T09:24:39Z</time>
      </trkpt>
      <trkpt lat="47.17083" lon="4.94797">
        <ele>288</ele>
        <time>2021-10-14T09:24:44Z</time>
      </trkpt>
      <trkpt lat="47.1708" lon="4.94791">
        <ele>288</ele>
        <time>2021-10-14T09:24:50Z</time>
      </trkpt>
      <trkpt lat="47.17067" lon="4.9476">
        <ele>292</ele>
        <time>2021-10-14T09:25:16Z</time>
      </trkpt>
      <trkpt lat="47.17059" lon="4.94747">
        <ele>293</ele>
        <time>2021-10-14T09:25:27Z</time>
      </trkpt>
      <trkpt lat="47.17049" lon="4.94719">
        <ele>296</ele>
        <time>2021-10-14T09:25:50Z</time>
      </trkpt>
      <trkpt lat="47.17046" lon="4.94712">
        <ele>297</ele>
        <time>2021-10-14T09:25:56Z</time>
      </trkpt>
      <trkpt lat="47.17021" lon="4.94674">
        <ele>303</ele>
        <time>2021-10-14T09:26:36Z</time>
      </trkpt>
      <trkpt lat="47.17015" lon="4.9467">
        <ele>304</ele>
        <time>2021-10-14T09:26:44Z</time>
      </trkpt>
      <trkpt lat="47.17005" lon="4.9466">
        <ele>305</ele>
        <time>2021-10-14T09:26:55Z</time>
      </trkpt>
      <trkpt lat="47.16999" lon="4.94655">
        <ele>306</ele>
        <time>2021-10-14T09:27:03Z</time>
      </trkpt>
      <trkpt lat="47.16997" lon="4.94647">
        <ele>306</ele>
        <time>2021-10-14T09:27:08Z</time>
      </trkpt>
      <trkpt lat="47.16993" lon="4.9464">
        <ele>307</ele>
        <time>2021-10-14T09:27:13Z</time>
      </trkpt>
      <trkpt lat="47.16987" lon="4.94637">
        <ele>308</ele>
        <time>2021-10-14T09:27:19Z</time>
      </trkpt>
      <trkpt lat="47.16978" lon="4.94622">
        <ele>310</ele>
        <time>2021-10-14T09:27:33Z</time>
      </trkpt>
      <trkpt lat="47.16975" lon="4.94617">
        <ele>312</ele>
        <time>2021-10-14T09:27:42Z</time>
      </trkpt>
      <trkpt lat="47.1697" lon="4.9461">
        <ele>312</ele>
        <time>2021-10-14T09:27:59Z</time>
      </trkpt>
      <trkpt lat="47.16963" lon="4.94593">
        <ele>314</ele>
        <time>2021-10-14T09:28:13Z</time>
      </trkpt>
      <trkpt lat="47.16957" lon="4.94587">
        <ele>315</ele>
        <time>2021-10-14T09:28:22Z</time>
      </trkpt>
      <trkpt lat="47.16943" lon="4.94567">
        <ele>317</ele>
        <time>2021-10-14T09:28:46Z</time>
      </trkpt>
      <trkpt lat="47.16939" lon="4.94563">
        <ele>318</ele>
        <time>2021-10-14T09:29:16Z</time>
      </trkpt>
      <trkpt lat="47.16937" lon="4.9455">
        <ele>318</ele>
        <time>2021-10-14T09:29:34Z</time>
      </trkpt>
      <trkpt lat="47.16942" lon="4.94548">
        <ele>318</ele>
        <time>2021-10-14T09:31:02Z</time>
      </trkpt>
      <trkpt lat="47.16948" lon="4.9455">
        <ele>320</ele>
        <time>2021-10-14T09:31:10Z</time>
      </trkpt>
      <trkpt lat="47.16956" lon="4.94547">
        <ele>320</ele>
        <time>2021-10-14T09:31:16Z</time>
      </trkpt>
      <trkpt lat="47.16966" lon="4.94543">
        <ele>321</ele>
        <time>2021-10-14T09:31:29Z</time>
      </trkpt>
      <trkpt lat="47.16997" lon="4.94536">
        <ele>324</ele>
        <time>2021-10-14T09:32:01Z</time>
      </trkpt>
      <trkpt lat="47.17013" lon="4.94536">
        <ele>326</ele>
        <time>2021-10-14T09:32:19Z</time>
      </trkpt>
      <trkpt lat="47.17024" lon="4.9453">
        <ele>327</ele>
        <time>2021-10-14T09:32:56Z</time>
      </trkpt>
      <trkpt lat="47.17029" lon="4.94527">
        <ele>328</ele>
        <time>2021-10-14T09:33:02Z</time>
      </trkpt>
      <trkpt lat="47.17051" lon="4.94522">
        <ele>331</ele>
        <time>2021-10-14T09:33:30Z</time>
      </trkpt>
      <trkpt lat="47.17057" lon="4.94518">
        <ele>331</ele>
        <time>2021-10-14T09:33:37Z</time>
      </trkpt>
      <trkpt lat="47.17083" lon="4.94503">
        <ele>335</ele>
        <time>2021-10-14T09:34:07Z</time>
      </trkpt>
      <trkpt lat="47.17102" lon="4.94477">
        <ele>340</ele>
        <time>2021-10-14T09:34:39Z</time>
      </trkpt>
      <trkpt lat="47.17116" lon="4.94456">
        <ele>342</ele>
        <time>2021-10-14T09:35:45Z</time>
      </trkpt>
      <trkpt lat="47.17137" lon="4.94445">
        <ele>345</ele>
        <time>2021-10-14T09:36:07Z</time>
      </trkpt>
      <trkpt lat="47.17169" lon="4.94417">
        <ele>349</ele>
        <time>2021-10-14T09:36:47Z</time>
      </trkpt>
      <trkpt lat="47.1718" lon="4.94403">
        <ele>351</ele>
        <time>2021-10-14T09:37:02Z</time>
      </trkpt>
      <trkpt lat="47.17186" lon="4.94384">
        <ele>353</ele>
        <time>2021-10-14T09:37:18Z</time>
      </trkpt>
      <trkpt lat="47.17185" lon="4.94363">
        <ele>357</ele>
        <time>2021-10-14T09:37:38Z</time>
      </trkpt>
      <trkpt lat="47.1717" lon="4.94346">
        <ele>360</ele>
        <time>2021-10-14T09:38:00Z</time>
      </trkpt>
      <trkpt lat="47.17157" lon="4.94298">
        <ele>366</ele>
        <time>2021-10-14T09:38:42Z</time>
      </trkpt>
      <trkpt lat="47.17156" lon="4.94272">
        <ele>369</ele>
        <time>2021-10-14T09:39:06Z</time>
      </trkpt>
      <trkpt lat="47.17151" lon="4.94245">
        <ele>372</ele>
        <time>2021-10-14T09:39:26Z</time>
      </trkpt>
      <trkpt lat="47.17147" lon="4.94239">
        <ele>372</ele>
        <time>2021-10-14T09:39:32Z</time>
      </trkpt>
      <trkpt lat="47.17142" lon="4.94233">
        <ele>373</ele>
        <time>2021-10-14T09:39:38Z</time>
      </trkpt>
      <trkpt lat="47.17144" lon="4.94207">
        <ele>377</ele>
        <time>2021-10-14T09:40:01Z</time>
      </trkpt>
      <trkpt lat="47.17148" lon="4.94192">
        <ele>378</ele>
        <time>2021-10-14T09:40:13Z</time>
      </trkpt>
      <trkpt lat="47.17146" lon="4.94182">
        <ele>378</ele>
        <time>2021-10-14T09:40:19Z</time>
      </trkpt>
      <trkpt lat="47.17148" lon="4.94175">
        <ele>379</ele>
        <time>2021-10-14T09:40:25Z</time>
      </trkpt>
      <trkpt lat="47.17146" lon="4.94148">
        <ele>381</ele>
        <time>2021-10-14T09:40:45Z</time>
      </trkpt>
      <trkpt lat="47.17143" lon="4.94135">
        <ele>382</ele>
        <time>2021-10-14T09:40:55Z</time>
      </trkpt>
      <trkpt lat="47.17145" lon="4.94098">
        <ele>386</ele>
        <time>2021-10-14T09:41:21Z</time>
      </trkpt>
      <trkpt lat="47.17155" lon="4.94061">
        <ele>389</ele>
        <time>2021-10-14T09:41:49Z</time>
      </trkpt>
      <trkpt lat="47.17159" lon="4.94054">
        <ele>390</ele>
        <time>2021-10-14T09:41:55Z</time>
      </trkpt>
      <trkpt lat="47.17159" lon="4.94046">
        <ele>391</ele>
        <time>2021-10-14T09:42:01Z</time>
      </trkpt>
      <trkpt lat="47.17165" lon="4.9403">
        <ele>392</ele>
        <time>2021-10-14T09:42:14Z</time>
      </trkpt>
      <trkpt lat="47.17166" lon="4.94015">
        <ele>393</ele>
        <time>2021-10-14T09:42:30Z</time>
      </trkpt>
      <trkpt lat="47.1717" lon="4.94008">
        <ele>393</ele>
        <time>2021-10-14T09:42:42Z</time>
      </trkpt>
      <trkpt lat="47.17195" lon="4.93973">
        <ele>395</ele>
        <time>2021-10-14T09:50:05Z</time>
      </trkpt>
      <trkpt lat="47.17203" lon="4.9397">
        <ele>395</ele>
        <time>2021-10-14T09:50:12Z</time>
      </trkpt>
      <trkpt lat="47.17208" lon="4.93968">
        <ele>395</ele>
        <time>2021-10-14T09:50:18Z</time>
      </trkpt>
      <trkpt lat="47.17216" lon="4.9396">
        <ele>395</ele>
        <time>2021-10-14T09:50:27Z</time>
      </trkpt>
      <trkpt lat="47.17228" lon="4.93949">
        <ele>396</ele>
        <time>2021-10-14T09:50:43Z</time>
      </trkpt>
      <trkpt lat="47.17234" lon="4.93947">
        <ele>395</ele>
        <time>2021-10-14T09:50:49Z</time>
      </trkpt>
      <trkpt lat="47.17261" lon="4.93908">
        <ele>396</ele>
        <time>2021-10-14T09:51:25Z</time>
      </trkpt>
      <trkpt lat="47.17281" lon="4.93886">
        <ele>397</ele>
        <time>2021-10-14T09:51:48Z</time>
      </trkpt>
      <trkpt lat="47.17287" lon="4.9388">
        <ele>396</ele>
        <time>2021-10-14T09:51:53Z</time>
      </trkpt>
      <trkpt lat="47.17314" lon="4.93848">
        <ele>397</ele>
        <time>2021-10-14T09:52:24Z</time>
      </trkpt>
      <trkpt lat="47.17318" lon="4.93842">
        <ele>397</ele>
        <time>2021-10-14T09:52:29Z</time>
      </trkpt>
      <trkpt lat="47.17328" lon="4.9383">
        <ele>398</ele>
        <time>2021-10-14T09:52:41Z</time>
      </trkpt>
      <trkpt lat="47.17337" lon="4.93816">
        <ele>398</ele>
        <time>2021-10-14T09:52:53Z</time>
      </trkpt>
      <trkpt lat="47.17343" lon="4.93812">
        <ele>398</ele>
        <time>2021-10-14T09:52:58Z</time>
      </trkpt>
      <trkpt lat="47.17348" lon="4.93808">
        <ele>398</ele>
        <time>2021-10-14T09:53:03Z</time>
      </trkpt>
      <trkpt lat="47.17359" lon="4.938">
        <ele>398</ele>
        <time>2021-10-14T09:53:15Z</time>
      </trkpt>
      <trkpt lat="47.17364" lon="4.93795">
        <ele>398</ele>
        <time>2021-10-14T09:53:20Z</time>
      </trkpt>
      <trkpt lat="47.17377" lon="4.93779">
        <ele>399</ele>
        <time>2021-10-14T09:53:36Z</time>
      </trkpt>
      <trkpt lat="47.17383" lon="4.93776">
        <ele>399</ele>
        <time>2021-10-14T09:53:41Z</time>
      </trkpt>
      <trkpt lat="47.17388" lon="4.93771">
        <ele>399</ele>
        <time>2021-10-14T09:53:45Z</time>
      </trkpt>
      <trkpt lat="47.17392" lon="4.93765">
        <ele>399</ele>
        <time>2021-10-14T09:53:49Z</time>
      </trkpt>
      <trkpt lat="47.17423" lon="4.93728">
        <ele>400</ele>
        <time>2021-10-14T09:54:22Z</time>
      </trkpt>
      <trkpt lat="47.17432" lon="4.93716">
        <ele>400</ele>
        <time>2021-10-14T09:54:32Z</time>
      </trkpt>
      <trkpt lat="47.17436" lon="4.93709">
        <ele>400</ele>
        <time>2021-10-14T09:54:37Z</time>
      </trkpt>
      <trkpt lat="47.1744" lon="4.93703">
        <ele>400</ele>
        <time>2021-10-14T09:54:42Z</time>
      </trkpt>
      <trkpt lat="47.17445" lon="4.93697">
        <ele>400</ele>
        <time>2021-10-14T09:54:48Z</time>
      </trkpt>
      <trkpt lat="47.17454" lon="4.93687">
        <ele>400</ele>
        <time>2021-10-14T09:54:59Z</time>
      </trkpt>
      <trkpt lat="47.17462" lon="4.93675">
        <ele>401</ele>
        <time>2021-10-14T09:55:08Z</time>
      </trkpt>
      <trkpt lat="47.17466" lon="4.93671">
        <ele>401</ele>
        <time>2021-10-14T09:55:12Z</time>
      </trkpt>
      <trkpt lat="47.17472" lon="4.93666">
        <ele>401</ele>
        <time>2021-10-14T09:55:18Z</time>
      </trkpt>
      <trkpt lat="47.17485" lon="4.93647">
        <ele>401</ele>
        <time>2021-10-14T09:55:33Z</time>
      </trkpt>
      <trkpt lat="47.17491" lon="4.93643">
        <ele>401</ele>
        <time>2021-10-14T09:55:39Z</time>
      </trkpt>
      <trkpt lat="47.17508" lon="4.93627">
        <ele>400</ele>
        <time>2021-10-14T09:55:58Z</time>
      </trkpt>
      <trkpt lat="47.17516" lon="4.93614">
        <ele>400</ele>
        <time>2021-10-14T09:56:08Z</time>
      </trkpt>
      <trkpt lat="47.17523" lon="4.93587">
        <ele>401</ele>
        <time>2021-10-14T09:56:24Z</time>
      </trkpt>
      <trkpt lat="47.17525" lon="4.93579">
        <ele>401</ele>
        <time>2021-10-14T09:56:28Z</time>
      </trkpt>
      <trkpt lat="47.17528" lon="4.93571">
        <ele>401</ele>
        <time>2021-10-14T09:56:33Z</time>
      </trkpt>
      <trkpt lat="47.17547" lon="4.93499">
        <ele>402</ele>
        <time>2021-10-14T09:57:16Z</time>
      </trkpt>
      <trkpt lat="47.17559" lon="4.93434">
        <ele>404</ele>
        <time>2021-10-14T09:57:55Z</time>
      </trkpt>
      <trkpt lat="47.1758" lon="4.93377">
        <ele>404</ele>
        <time>2021-10-14T09:58:28Z</time>
      </trkpt>
      <trkpt lat="47.17587" lon="4.93348">
        <ele>405</ele>
        <time>2021-10-14T09:58:50Z</time>
      </trkpt>
      <trkpt lat="47.17569" lon="4.93303">
        <ele>407</ele>
        <time>2021-10-14T09:59:24Z</time>
      </trkpt>
      <trkpt lat="47.17546" lon="4.93261">
        <ele>410</ele>
        <time>2021-10-14T10:00:00Z</time>
      </trkpt>
      <trkpt lat="47.17523" lon="4.93232">
        <ele>411</ele>
        <time>2021-10-14T10:00:23Z</time>
      </trkpt>
      <trkpt lat="47.17521" lon="4.93191">
        <ele>413</ele>
        <time>2021-10-14T10:00:52Z</time>
      </trkpt>
      <trkpt lat="47.17515" lon="4.93171">
        <ele>414</ele>
        <time>2021-10-14T10:01:07Z</time>
      </trkpt>
      <trkpt lat="47.17489" lon="4.93148">
        <ele>415</ele>
        <time>2021-10-14T10:01:32Z</time>
      </trkpt>
      <trkpt lat="47.17475" lon="4.93139">
        <ele>416</ele>
        <time>2021-10-14T10:01:45Z</time>
      </trkpt>
      <trkpt lat="47.17448" lon="4.93123">
        <ele>415</ele>
        <time>2021-10-14T10:02:11Z</time>
      </trkpt>
      <trkpt lat="47.17441" lon="4.93104">
        <ele>416</ele>
        <time>2021-10-14T10:02:24Z</time>
      </trkpt>
      <trkpt lat="47.17444" lon="4.93035">
        <ele>416</ele>
        <time>2021-10-14T10:03:06Z</time>
      </trkpt>
      <trkpt lat="47.17448" lon="4.92967">
        <ele>415</ele>
        <time>2021-10-14T10:03:53Z</time>
      </trkpt>
      <trkpt lat="47.17455" lon="4.92901">
        <ele>415</ele>
        <time>2021-10-14T10:04:33Z</time>
      </trkpt>
      <trkpt lat="47.1746" lon="4.92881">
        <ele>415</ele>
        <time>2021-10-14T10:04:46Z</time>
      </trkpt>
      <trkpt lat="47.17471" lon="4.92856">
        <ele>415</ele>
        <time>2021-10-14T10:05:05Z</time>
      </trkpt>
      <trkpt lat="47.17468" lon="4.9279">
        <ele>415</ele>
        <time>2021-10-14T10:05:47Z</time>
      </trkpt>
      <trkpt lat="47.17468" lon="4.92723">
        <ele>415</ele>
        <time>2021-10-14T10:06:29Z</time>
      </trkpt>
      <trkpt lat="47.17467" lon="4.927">
        <ele>415</ele>
        <time>2021-10-14T10:06:43Z</time>
      </trkpt>
      <trkpt lat="47.17503" lon="4.92678">
        <ele>415</ele>
        <time>2021-10-14T10:07:23Z</time>
      </trkpt>
      <trkpt lat="47.17549" lon="4.92661">
        <ele>416</ele>
        <time>2021-10-14T10:08:05Z</time>
      </trkpt>
      <trkpt lat="47.17553" lon="4.92657">
        <ele>416</ele>
        <time>2021-10-14T10:08:08Z</time>
      </trkpt>
      <trkpt lat="47.17558" lon="4.92656">
        <ele>416</ele>
        <time>2021-10-14T10:08:13Z</time>
      </trkpt>
      <trkpt lat="47.1757" lon="4.92651">
        <ele>416</ele>
        <time>2021-10-14T10:08:22Z</time>
      </trkpt>
      <trkpt lat="47.17576" lon="4.9265">
        <ele>416</ele>
        <time>2021-10-14T10:08:27Z</time>
      </trkpt>
      <trkpt lat="47.17582" lon="4.92646">
        <ele>415</ele>
        <time>2021-10-14T10:08:32Z</time>
      </trkpt>
      <trkpt lat="47.17588" lon="4.92646">
        <ele>416</ele>
        <time>2021-10-14T10:08:36Z</time>
      </trkpt>
      <trkpt lat="47.17593" lon="4.92643">
        <ele>416</ele>
        <time>2021-10-14T10:08:41Z</time>
      </trkpt>
      <trkpt lat="47.17599" lon="4.9264">
        <ele>415</ele>
        <time>2021-10-14T10:08:46Z</time>
      </trkpt>
      <trkpt lat="47.17625" lon="4.9262">
        <ele>415</ele>
        <time>2021-10-14T10:09:21Z</time>
      </trkpt>
      <trkpt lat="47.17647" lon="4.92613">
        <ele>414</ele>
        <time>2021-10-14T10:09:52Z</time>
      </trkpt>
      <trkpt lat="47.17702" lon="4.9259">
        <ele>412</ele>
        <time>2021-10-14T10:10:42Z</time>
      </trkpt>
      <trkpt lat="47.17746" lon="4.92596">
        <ele>410</ele>
        <time>2021-10-14T10:11:18Z</time>
      </trkpt>
      <trkpt lat="47.1776" lon="4.92594">
        <ele>409</ele>
        <time>2021-10-14T10:11:30Z</time>
      </trkpt>
      <trkpt lat="47.17806" lon="4.926">
        <ele>406</ele>
        <time>2021-10-14T10:12:05Z</time>
      </trkpt>
      <trkpt lat="47.1782" lon="4.92606">
        <ele>404</ele>
        <time>2021-10-14T10:12:19Z</time>
      </trkpt>
      <trkpt lat="47.17837" lon="4.92604">
        <ele>403</ele>
        <time>2021-10-14T10:12:35Z</time>
      </trkpt>
      <trkpt lat="47.17882" lon="4.92614">
        <ele>399</ele>
        <time>2021-10-14T10:13:08Z</time>
      </trkpt>
      <trkpt lat="47.17913" lon="4.92611">
        <ele>397</ele>
        <time>2021-10-14T10:13:32Z</time>
      </trkpt>
      <trkpt lat="47.17956" lon="4.92589">
        <ele>398</ele>
        <time>2021-10-14T10:14:08Z</time>
      </trkpt>
      <trkpt lat="47.17983" lon="4.92572">
        <ele>400</ele>
        <time>2021-10-14T10:14:34Z</time>
      </trkpt>
      <trkpt lat="47.18013" lon="4.92567">
        <ele>403</ele>
        <time>2021-10-14T10:14:59Z</time>
      </trkpt>
      <trkpt lat="47.18057" lon="4.92573">
        <ele>405</ele>
        <time>2021-10-14T10:15:38Z</time>
      </trkpt>
      <trkpt lat="47.18089" lon="4.92572">
        <ele>406</ele>
        <time>2021-10-14T10:16:03Z</time>
      </trkpt>
      <trkpt lat="47.18102" lon="4.92561">
        <ele>406</ele>
        <time>2021-10-14T10:16:17Z</time>
      </trkpt>
      <trkpt lat="47.18106" lon="4.92541">
        <ele>406</ele>
        <time>2021-10-14T10:16:27Z</time>
      </trkpt>
      <trkpt lat="47.18087" lon="4.92482">
        <ele>407</ele>
        <time>2021-10-14T10:17:06Z</time>
      </trkpt>
      <trkpt lat="47.18071" lon="4.92419">
        <ele>408</ele>
        <time>2021-10-14T10:17:43Z</time>
      </trkpt>
      <trkpt lat="47.18067" lon="4.92348">
        <ele>410</ele>
        <time>2021-10-14T10:18:26Z</time>
      </trkpt>
      <trkpt lat="47.18068" lon="4.92327">
        <ele>409</ele>
        <time>2021-10-14T10:18:40Z</time>
      </trkpt>
      <trkpt lat="47.18073" lon="4.9226">
        <ele>410</ele>
        <time>2021-10-14T10:19:19Z</time>
      </trkpt>
      <trkpt lat="47.18075" lon="4.92248">
        <ele>410</ele>
        <time>2021-10-14T10:19:27Z</time>
      </trkpt>
      <trkpt lat="47.18075" lon="4.92229">
        <ele>411</ele>
        <time>2021-10-14T10:19:37Z</time>
      </trkpt>
      <trkpt lat="47.18078" lon="4.92195">
        <ele>411</ele>
        <time>2021-10-14T10:19:57Z</time>
      </trkpt>
      <trkpt lat="47.18079" lon="4.92185">
        <ele>411</ele>
        <time>2021-10-14T10:20:14Z</time>
      </trkpt>
      <trkpt lat="47.18082" lon="4.92164">
        <ele>412</ele>
        <time>2021-10-14T10:20:28Z</time>
      </trkpt>
      <trkpt lat="47.18081" lon="4.92155">
        <ele>413</ele>
        <time>2021-10-14T10:20:34Z</time>
      </trkpt>
      <trkpt lat="47.18082" lon="4.92147">
        <ele>413</ele>
        <time>2021-10-14T10:20:39Z</time>
      </trkpt>
      <trkpt lat="47.18082" lon="4.92141">
        <ele>414</ele>
        <time>2021-10-14T10:20:50Z</time>
      </trkpt>
      <trkpt lat="47.18092" lon="4.92096">
        <ele>414</ele>
        <time>2021-10-14T10:21:23Z</time>
      </trkpt>
      <trkpt lat="47.18096" lon="4.92076">
        <ele>415</ele>
        <time>2021-10-14T10:22:23Z</time>
      </trkpt>
      <trkpt lat="47.18102" lon="4.92062">
        <ele>416</ele>
        <time>2021-10-14T10:22:35Z</time>
      </trkpt>
      <trkpt lat="47.18111" lon="4.92046">
        <ele>416</ele>
        <time>2021-10-14T10:22:48Z</time>
      </trkpt>
      <trkpt lat="47.18115" lon="4.92035">
        <ele>416</ele>
        <time>2021-10-14T10:22:56Z</time>
      </trkpt>
      <trkpt lat="47.18116" lon="4.92027">
        <ele>417</ele>
        <time>2021-10-14T10:23:08Z</time>
      </trkpt>
      <trkpt lat="47.18118" lon="4.92019">
        <ele>417</ele>
        <time>2021-10-14T10:23:12Z</time>
      </trkpt>
      <trkpt lat="47.18122" lon="4.92013">
        <ele>417</ele>
        <time>2021-10-14T10:23:18Z</time>
      </trkpt>
      <trkpt lat="47.18125" lon="4.92003">
        <ele>418</ele>
        <time>2021-10-14T10:23:25Z</time>
      </trkpt>
      <trkpt lat="47.18125" lon="4.91994">
        <ele>419</ele>
        <time>2021-10-14T10:23:30Z</time>
      </trkpt>
      <trkpt lat="47.18125" lon="4.91986">
        <ele>419</ele>
        <time>2021-10-14T10:23:38Z</time>
      </trkpt>
      <trkpt lat="47.18125" lon="4.91978">
        <ele>420</ele>
        <time>2021-10-14T10:24:02Z</time>
      </trkpt>
      <trkpt lat="47.18129" lon="4.91965">
        <ele>421</ele>
        <time>2021-10-14T10:24:15Z</time>
      </trkpt>
      <trkpt lat="47.1813" lon="4.91957">
        <ele>421</ele>
        <time>2021-10-14T10:24:20Z</time>
      </trkpt>
      <trkpt lat="47.18131" lon="4.91948">
        <ele>422</ele>
        <time>2021-10-14T10:24:25Z</time>
      </trkpt>
      <trkpt lat="47.18131" lon="4.91927">
        <ele>424</ele>
        <time>2021-10-14T10:24:48Z</time>
      </trkpt>
      <trkpt lat="47.18131" lon="4.91916">
        <ele>424</ele>
        <time>2021-10-14T10:26:48Z</time>
      </trkpt>
      <trkpt lat="47.18129" lon="4.91978">
        <ele>420</ele>
        <time>2021-10-14T11:11:52Z</time>
      </trkpt>
      <trkpt lat="47.18121" lon="4.92023">
        <ele>419</ele>
        <time>2021-10-14T11:12:18Z</time>
      </trkpt>
      <trkpt lat="47.181" lon="4.92069">
        <ele>417</ele>
        <time>2021-10-14T11:12:52Z</time>
      </trkpt>
      <trkpt lat="47.18095" lon="4.9209">
        <ele>416</ele>
        <time>2021-10-14T11:13:05Z</time>
      </trkpt>
      <trkpt lat="47.18087" lon="4.92139">
        <ele>415</ele>
        <time>2021-10-14T11:13:37Z</time>
      </trkpt>
      <trkpt lat="47.18079" lon="4.92205">
        <ele>412</ele>
        <time>2021-10-14T11:14:14Z</time>
      </trkpt>
      <trkpt lat="47.18072" lon="4.92272">
        <ele>411</ele>
        <time>2021-10-14T11:14:52Z</time>
      </trkpt>
      <trkpt lat="47.18068" lon="4.92337">
        <ele>410</ele>
        <time>2021-10-14T11:15:30Z</time>
      </trkpt>
      <trkpt lat="47.18068" lon="4.92403">
        <ele>409</ele>
        <time>2021-10-14T11:16:06Z</time>
      </trkpt>
      <trkpt lat="47.18082" lon="4.92466">
        <ele>408</ele>
        <time>2021-10-14T11:16:45Z</time>
      </trkpt>
      <trkpt lat="47.18099" lon="4.92526">
        <ele>406</ele>
        <time>2021-10-14T11:17:21Z</time>
      </trkpt>
      <trkpt lat="47.18105" lon="4.92546">
        <ele>406</ele>
        <time>2021-10-14T11:17:33Z</time>
      </trkpt>
      <trkpt lat="47.18107" lon="4.92568">
        <ele>406</ele>
        <time>2021-10-14T11:18:06Z</time>
      </trkpt>
      <trkpt lat="47.18153" lon="4.92564">
        <ele>407</ele>
        <time>2021-10-14T11:19:40Z</time>
      </trkpt>
      <trkpt lat="47.1818" lon="4.92566">
        <ele>408</ele>
        <time>2021-10-14T11:20:04Z</time>
      </trkpt>
      <trkpt lat="47.1821" lon="4.92575">
        <ele>410</ele>
        <time>2021-10-14T11:20:35Z</time>
      </trkpt>
      <trkpt lat="47.18248" lon="4.92576">
        <ele>411</ele>
        <time>2021-10-14T11:21:08Z</time>
      </trkpt>
      <trkpt lat="47.18276" lon="4.92567">
        <ele>411</ele>
        <time>2021-10-14T11:21:31Z</time>
      </trkpt>
      <trkpt lat="47.18335" lon="4.92552">
        <ele>414</ele>
        <time>2021-10-14T11:22:19Z</time>
      </trkpt>
      <trkpt lat="47.18383" lon="4.92533">
        <ele>416</ele>
        <time>2021-10-14T11:23:00Z</time>
      </trkpt>
      <trkpt lat="47.18412" lon="4.92526">
        <ele>416</ele>
        <time>2021-10-14T11:23:25Z</time>
      </trkpt>
      <trkpt lat="47.18458" lon="4.92525">
        <ele>418</ele>
        <time>2021-10-14T11:24:04Z</time>
      </trkpt>
      <trkpt lat="47.18503" lon="4.92516">
        <ele>421</ele>
        <time>2021-10-14T11:24:44Z</time>
      </trkpt>
      <trkpt lat="47.18547" lon="4.92503">
        <ele>423</ele>
        <time>2021-10-14T11:25:19Z</time>
      </trkpt>
      <trkpt lat="47.18569" lon="4.92496">
        <ele>424</ele>
        <time>2021-10-14T11:25:43Z</time>
      </trkpt>
      <trkpt lat="47.18596" lon="4.9248">
        <ele>425</ele>
        <time>2021-10-14T11:26:09Z</time>
      </trkpt>
      <trkpt lat="47.18624" lon="4.92467">
        <ele>424</ele>
        <time>2021-10-14T11:26:32Z</time>
      </trkpt>
      <trkpt lat="47.18639" lon="4.92473">
        <ele>425</ele>
        <time>2021-10-14T11:26:54Z</time>
      </trkpt>
      <trkpt lat="47.18646" lon="4.92519">
        <ele>426</ele>
        <time>2021-10-14T11:27:35Z</time>
      </trkpt>
      <trkpt lat="47.18646" lon="4.92586">
        <ele>428</ele>
        <time>2021-10-14T11:28:14Z</time>
      </trkpt>
      <trkpt lat="47.18651" lon="4.92607">
        <ele>428</ele>
        <time>2021-10-14T11:28:36Z</time>
      </trkpt>
      <trkpt lat="47.1867" lon="4.92614">
        <ele>428</ele>
        <time>2021-10-14T11:29:12Z</time>
      </trkpt>
      <trkpt lat="47.1869" lon="4.92616">
        <ele>428</ele>
        <time>2021-10-14T11:29:32Z</time>
      </trkpt>
      <trkpt lat="47.18735" lon="4.92627">
        <ele>427</ele>
        <time>2021-10-14T11:30:14Z</time>
      </trkpt>
      <trkpt lat="47.18767" lon="4.92627">
        <ele>426</ele>
        <time>2021-10-14T11:30:45Z</time>
      </trkpt>
      <trkpt lat="47.18781" lon="4.92625">
        <ele>425</ele>
        <time>2021-10-14T11:31:00Z</time>
      </trkpt>
      <trkpt lat="47.18821" lon="4.92637">
        <ele>422</ele>
        <time>2021-10-14T11:31:49Z</time>
      </trkpt>
      <trkpt lat="47.18846" lon="4.92633">
        <ele>419</ele>
        <time>2021-10-14T11:32:09Z</time>
      </trkpt>
      <trkpt lat="47.18875" lon="4.9264">
        <ele>410</ele>
        <time>2021-10-14T11:33:04Z</time>
      </trkpt>
      <trkpt lat="47.18904" lon="4.92644">
        <ele>408</ele>
        <time>2021-10-14T11:34:04Z</time>
      </trkpt>
      <trkpt lat="47.18955" lon="4.92649">
        <ele>418</ele>
        <time>2021-10-14T11:35:26Z</time>
      </trkpt>
      <trkpt lat="47.19008" lon="4.92657">
        <ele>419</ele>
        <time>2021-10-14T11:36:07Z</time>
      </trkpt>
      <trkpt lat="47.19021" lon="4.92666">
        <ele>419</ele>
        <time>2021-10-14T11:36:27Z</time>
      </trkpt>
      <trkpt lat="47.19036" lon="4.92654">
        <ele>420</ele>
        <time>2021-10-14T11:36:40Z</time>
      </trkpt>
      <trkpt lat="47.19093" lon="4.92667">
        <ele>420</ele>
        <time>2021-10-14T11:37:56Z</time>
      </trkpt>
      <trkpt lat="47.19106" lon="4.92665">
        <ele>420</ele>
        <time>2021-10-14T11:38:10Z</time>
      </trkpt>
      <trkpt lat="47.19135" lon="4.9265">
        <ele>421</ele>
        <time>2021-10-14T11:38:43Z</time>
      </trkpt>
      <trkpt lat="47.19165" lon="4.92636">
        <ele>417</ele>
        <time>2021-10-14T11:40:16Z</time>
      </trkpt>
      <trkpt lat="47.19193" lon="4.92639">
        <ele>413</ele>
        <time>2021-10-14T11:41:41Z</time>
      </trkpt>
      <trkpt lat="47.19192" lon="4.92696">
        <ele>411</ele>
        <time>2021-10-14T11:43:03Z</time>
      </trkpt>
      <trkpt lat="47.1918" lon="4.92741">
        <ele>416</ele>
        <time>2021-10-14T11:44:00Z</time>
      </trkpt>
      <trkpt lat="47.19204" lon="4.92769">
        <ele>423</ele>
        <time>2021-10-14T11:44:40Z</time>
      </trkpt>
      <trkpt lat="47.19211" lon="4.92787">
        <ele>424</ele>
        <time>2021-10-14T11:44:52Z</time>
      </trkpt>
      <trkpt lat="47.19247" lon="4.92831">
        <ele>427</ele>
        <time>2021-10-14T11:45:43Z</time>
      </trkpt>
      <trkpt lat="47.19285" lon="4.92847">
        <ele>429</ele>
        <time>2021-10-14T11:46:23Z</time>
      </trkpt>
      <trkpt lat="47.19325" lon="4.92864">
        <ele>430</ele>
        <time>2021-10-14T11:47:02Z</time>
      </trkpt>
      <trkpt lat="47.19368" lon="4.92868">
        <ele>432</ele>
        <time>2021-10-14T11:47:42Z</time>
      </trkpt>
      <trkpt lat="47.19386" lon="4.92859">
        <ele>433</ele>
        <time>2021-10-14T11:48:01Z</time>
      </trkpt>
      <trkpt lat="47.1942" lon="4.92868">
        <ele>433</ele>
        <time>2021-10-14T11:48:26Z</time>
      </trkpt>
      <trkpt lat="47.19468" lon="4.9285">
        <ele>434</ele>
        <time>2021-10-14T11:49:12Z</time>
      </trkpt>
      <trkpt lat="47.19498" lon="4.92838">
        <ele>435</ele>
        <time>2021-10-14T11:49:36Z</time>
      </trkpt>
      <trkpt lat="47.19546" lon="4.92797">
        <ele>437</ele>
        <time>2021-10-14T11:50:28Z</time>
      </trkpt>
      <trkpt lat="47.19594" lon="4.92739">
        <ele>437</ele>
        <time>2021-10-14T11:51:16Z</time>
      </trkpt>
      <trkpt lat="47.19643" lon="4.92694">
        <ele>438</ele>
        <time>2021-10-14T11:52:10Z</time>
      </trkpt>
      <trkpt lat="47.19686" lon="4.92684">
        <ele>438</ele>
        <time>2021-10-14T11:52:49Z</time>
      </trkpt>
      <trkpt lat="47.19716" lon="4.92692">
        <ele>438</ele>
        <time>2021-10-14T11:53:09Z</time>
      </trkpt>
      <trkpt lat="47.19766" lon="4.92736">
        <ele>436</ele>
        <time>2021-10-14T11:53:56Z</time>
      </trkpt>
      <trkpt lat="47.1979" lon="4.92761">
        <ele>434</ele>
        <time>2021-10-14T11:54:19Z</time>
      </trkpt>
      <trkpt lat="47.19823" lon="4.92752">
        <ele>427</ele>
        <time>2021-10-14T11:54:57Z</time>
      </trkpt>
      <trkpt lat="47.19878" lon="4.92755">
        <ele>418</ele>
        <time>2021-10-14T11:55:56Z</time>
      </trkpt>
      <trkpt lat="47.19905" lon="4.92732">
        <ele>416</ele>
        <time>2021-10-14T11:56:15Z</time>
      </trkpt>
      <trkpt lat="47.1992" lon="4.92698">
        <ele>415</ele>
        <time>2021-10-14T11:56:37Z</time>
      </trkpt>
      <trkpt lat="47.19945" lon="4.92676">
        <ele>412</ele>
        <time>2021-10-14T11:57:50Z</time>
      </trkpt>
      <trkpt lat="47.19971" lon="4.92703">
        <ele>420</ele>
        <time>2021-10-14T11:59:14Z</time>
      </trkpt>
      <trkpt lat="47.19993" lon="4.9273">
        <ele>430</ele>
        <time>2021-10-14T12:00:35Z</time>
      </trkpt>
      <trkpt lat="47.20007" lon="4.9274">
        <ele>437</ele>
        <time>2021-10-14T12:01:52Z</time>
      </trkpt>
      <trkpt lat="47.20019" lon="4.92754">
        <ele>439</ele>
        <time>2021-10-14T12:03:45Z</time>
      </trkpt>
      <trkpt lat="47.20045" lon="4.92784">
        <ele>443</ele>
        <time>2021-10-14T12:04:24Z</time>
      </trkpt>
      <trkpt lat="47.20082" lon="4.92816">
        <ele>446</ele>
        <time>2021-10-14T12:05:22Z</time>
      </trkpt>
      <trkpt lat="47.20106" lon="4.92842">
        <ele>448</ele>
        <time>2021-10-14T12:06:01Z</time>
      </trkpt>
      <trkpt lat="47.2014" lon="4.92912">
        <ele>449</ele>
        <time>2021-10-14T12:07:16Z</time>
      </trkpt>
      <trkpt lat="47.20149" lon="4.92952">
        <ele>450</ele>
        <time>2021-10-14T12:07:46Z</time>
      </trkpt>
      <trkpt lat="47.20145" lon="4.92997">
        <ele>450</ele>
        <time>2021-10-14T12:08:09Z</time>
      </trkpt>
      <trkpt lat="47.20154" lon="4.93081">
        <ele>452</ele>
        <time>2021-10-14T12:09:00Z</time>
      </trkpt>
      <trkpt lat="47.20177" lon="4.93158">
        <ele>453</ele>
        <time>2021-10-14T12:09:44Z</time>
      </trkpt>
      <trkpt lat="47.20183" lon="4.93252">
        <ele>456</ele>
        <time>2021-10-14T12:10:37Z</time>
      </trkpt>
      <trkpt lat="47.20168" lon="4.93288">
        <ele>456</ele>
        <time>2021-10-14T12:11:04Z</time>
      </trkpt>
      <trkpt lat="47.20125" lon="4.93349">
        <ele>454</ele>
        <time>2021-10-14T12:11:51Z</time>
      </trkpt>
      <trkpt lat="47.2012" lon="4.93391">
        <ele>453</ele>
        <time>2021-10-14T12:12:17Z</time>
      </trkpt>
      <trkpt lat="47.20125" lon="4.93431">
        <ele>453</ele>
        <time>2021-10-14T12:12:41Z</time>
      </trkpt>
      <trkpt lat="47.20145" lon="4.93514">
        <ele>451</ele>
        <time>2021-10-14T12:13:27Z</time>
      </trkpt>
      <trkpt lat="47.20145" lon="4.93559">
        <ele>449</ele>
        <time>2021-10-14T12:13:53Z</time>
      </trkpt>
      <trkpt lat="47.20124" lon="4.93647">
        <ele>443</ele>
        <time>2021-10-14T12:14:59Z</time>
      </trkpt>
      <trkpt lat="47.20115" lon="4.9373">
        <ele>441</ele>
        <time>2021-10-14T12:16:51Z</time>
      </trkpt>
      <trkpt lat="47.20111" lon="4.93789">
        <ele>439</ele>
        <time>2021-10-14T12:17:24Z</time>
      </trkpt>
      <trkpt lat="47.2011" lon="4.93801">
        <ele>439</ele>
        <time>2021-10-14T12:17:31Z</time>
      </trkpt>
      <trkpt lat="47.20111" lon="4.93835">
        <ele>438</ele>
        <time>2021-10-14T12:17:50Z</time>
      </trkpt>
      <trkpt lat="47.2011" lon="4.93844">
        <ele>438</ele>
        <time>2021-10-14T12:17:56Z</time>
      </trkpt>
      <trkpt lat="47.20111" lon="4.93859">
        <ele>437</ele>
        <time>2021-10-14T12:18:06Z</time>
      </trkpt>
      <trkpt lat="47.2011" lon="4.93868">
        <ele>437</ele>
        <time>2021-10-14T12:18:10Z</time>
      </trkpt>
      <trkpt lat="47.20111" lon="4.93877">
        <ele>437</ele>
        <time>2021-10-14T12:18:14Z</time>
      </trkpt>
      <trkpt lat="47.20112" lon="4.93935">
        <ele>436</ele>
        <time>2021-10-14T12:18:46Z</time>
      </trkpt>
      <trkpt lat="47.20113" lon="4.93944">
        <ele>436</ele>
        <time>2021-10-14T12:18:51Z</time>
      </trkpt>
      <trkpt lat="47.20112" lon="4.93954">
        <ele>436</ele>
        <time>2021-10-14T12:18:56Z</time>
      </trkpt>
      <trkpt lat="47.20113" lon="4.93962">
        <ele>436</ele>
        <time>2021-10-14T12:19:01Z</time>
      </trkpt>
      <trkpt lat="47.20116" lon="4.94007">
        <ele>435</ele>
        <time>2021-10-14T12:19:25Z</time>
      </trkpt>
      <trkpt lat="47.20122" lon="4.94037">
        <ele>435</ele>
        <time>2021-10-14T12:19:43Z</time>
      </trkpt>
      <trkpt lat="47.20128" lon="4.94052">
        <ele>435</ele>
        <time>2021-10-14T12:19:53Z</time>
      </trkpt>
      <trkpt lat="47.2013" lon="4.94062">
        <ele>435</ele>
        <time>2021-10-14T12:19:58Z</time>
      </trkpt>
      <trkpt lat="47.20136" lon="4.94076">
        <ele>434</ele>
        <time>2021-10-14T12:20:07Z</time>
      </trkpt>
      <trkpt lat="47.20139" lon="4.94094">
        <ele>434</ele>
        <time>2021-10-14T12:20:17Z</time>
      </trkpt>
      <trkpt lat="47.20146" lon="4.94116">
        <ele>434</ele>
        <time>2021-10-14T12:20:30Z</time>
      </trkpt>
      <trkpt lat="47.20152" lon="4.9414">
        <ele>433</ele>
        <time>2021-10-14T12:20:44Z</time>
      </trkpt>
      <trkpt lat="47.20159" lon="4.94158">
        <ele>433</ele>
        <time>2021-10-14T12:20:56Z</time>
      </trkpt>
      <trkpt lat="47.20167" lon="4.94209">
        <ele>432</ele>
        <time>2021-10-14T12:21:23Z</time>
      </trkpt>
      <trkpt lat="47.20183" lon="4.94223">
        <ele>431</ele>
        <time>2021-10-14T12:21:38Z</time>
      </trkpt>
      <trkpt lat="47.20188" lon="4.94226">
        <ele>431</ele>
        <time>2021-10-14T12:21:44Z</time>
      </trkpt>
      <trkpt lat="47.20194" lon="4.94231">
        <ele>431</ele>
        <time>2021-10-14T12:21:49Z</time>
      </trkpt>
      <trkpt lat="47.20199" lon="4.94238">
        <ele>431</ele>
        <time>2021-10-14T12:21:54Z</time>
      </trkpt>
      <trkpt lat="47.20221" lon="4.94256">
        <ele>432</ele>
        <time>2021-10-14T12:22:16Z</time>
      </trkpt>
      <trkpt lat="47.20227" lon="4.94258">
        <ele>432</ele>
        <time>2021-10-14T12:22:20Z</time>
      </trkpt>
      <trkpt lat="47.20244" lon="4.94272">
        <ele>432</ele>
        <time>2021-10-14T12:22:35Z</time>
      </trkpt>
      <trkpt lat="47.20256" lon="4.9428">
        <ele>432</ele>
        <time>2021-10-14T12:22:44Z</time>
      </trkpt>
      <trkpt lat="47.20264" lon="4.94292">
        <ele>432</ele>
        <time>2021-10-14T12:22:54Z</time>
      </trkpt>
      <trkpt lat="47.20298" lon="4.94313">
        <ele>433</ele>
        <time>2021-10-14T12:23:25Z</time>
      </trkpt>
      <trkpt lat="47.20303" lon="4.94318">
        <ele>433</ele>
        <time>2021-10-14T12:23:29Z</time>
      </trkpt>
      <trkpt lat="47.20339" lon="4.94347">
        <ele>434</ele>
        <time>2021-10-14T12:24:00Z</time>
      </trkpt>
      <trkpt lat="47.20349" lon="4.94357">
        <ele>434</ele>
        <time>2021-10-14T12:24:10Z</time>
      </trkpt>
      <trkpt lat="47.20365" lon="4.94367">
        <ele>435</ele>
        <time>2021-10-14T12:24:23Z</time>
      </trkpt>
      <trkpt lat="47.20382" lon="4.94374">
        <ele>435</ele>
        <time>2021-10-14T12:24:37Z</time>
      </trkpt>
      <trkpt lat="47.20397" lon="4.94387">
        <ele>435</ele>
        <time>2021-10-14T12:24:51Z</time>
      </trkpt>
      <trkpt lat="47.20413" lon="4.94396">
        <ele>435</ele>
        <time>2021-10-14T12:25:05Z</time>
      </trkpt>
      <trkpt lat="47.20418" lon="4.94399">
        <ele>435</ele>
        <time>2021-10-14T12:25:09Z</time>
      </trkpt>
      <trkpt lat="47.20445" lon="4.94412">
        <ele>435</ele>
        <time>2021-10-14T12:25:34Z</time>
      </trkpt>
      <trkpt lat="47.20484" lon="4.94435">
        <ele>436</ele>
        <time>2021-10-14T12:26:08Z</time>
      </trkpt>
      <trkpt lat="47.2049" lon="4.94439">
        <ele>436</ele>
        <time>2021-10-14T12:26:12Z</time>
      </trkpt>
      <trkpt lat="47.20522" lon="4.94455">
        <ele>437</ele>
        <time>2021-10-14T12:26:44Z</time>
      </trkpt>
      <trkpt lat="47.20548" lon="4.94468">
        <ele>438</ele>
        <time>2021-10-14T12:27:12Z</time>
      </trkpt>
      <trkpt lat="47.20554" lon="4.94469">
        <ele>438</ele>
        <time>2021-10-14T12:27:17Z</time>
      </trkpt>
      <trkpt lat="47.20575" lon="4.94486">
        <ele>439</ele>
        <time>2021-10-14T12:27:37Z</time>
      </trkpt>
      <trkpt lat="47.20581" lon="4.94486">
        <ele>439</ele>
        <time>2021-10-14T12:27:43Z</time>
      </trkpt>
      <trkpt lat="47.20587" lon="4.94484">
        <ele>439</ele>
        <time>2021-10-14T12:27:55Z</time>
      </trkpt>
      <trkpt lat="47.20592" lon="4.94489">
        <ele>439</ele>
        <time>2021-10-14T12:28:00Z</time>
      </trkpt>
      <trkpt lat="47.20608" lon="4.94502">
        <ele>440</ele>
        <time>2021-10-14T12:28:27Z</time>
      </trkpt>
      <trkpt lat="47.20621" lon="4.9451">
        <ele>440</ele>
        <time>2021-10-14T12:29:04Z</time>
      </trkpt>
      <trkpt lat="47.20618" lon="4.94525">
        <ele>440</ele>
        <time>2021-10-14T12:29:14Z</time>
      </trkpt>
      <trkpt lat="47.20615" lon="4.94535">
        <ele>440</ele>
        <time>2021-10-14T12:29:22Z</time>
      </trkpt>
      <trkpt lat="47.20613" lon="4.94544">
        <ele>440</ele>
        <time>2021-10-14T12:29:28Z</time>
      </trkpt>
      <trkpt lat="47.20611" lon="4.94553">
        <ele>439</ele>
        <time>2021-10-14T12:29:33Z</time>
      </trkpt>
      <trkpt lat="47.20609" lon="4.94561">
        <ele>439</ele>
        <time>2021-10-14T12:29:38Z</time>
      </trkpt>
      <trkpt lat="47.20605" lon="4.94572">
        <ele>439</ele>
        <time>2021-10-14T12:29:46Z</time>
      </trkpt>
      <trkpt lat="47.20604" lon="4.9458">
        <ele>439</ele>
        <time>2021-10-14T12:29:50Z</time>
      </trkpt>
      <trkpt lat="47.20582" lon="4.9464">
        <ele>439</ele>
        <time>2021-10-14T12:30:30Z</time>
      </trkpt>
      <trkpt lat="47.20562" lon="4.94708">
        <ele>438</ele>
        <time>2021-10-14T12:31:12Z</time>
      </trkpt>
      <trkpt lat="47.20545" lon="4.9477">
        <ele>437</ele>
        <time>2021-10-14T12:31:51Z</time>
      </trkpt>
      <trkpt lat="47.2053" lon="4.94833">
        <ele>435</ele>
        <time>2021-10-14T12:32:29Z</time>
      </trkpt>
      <trkpt lat="47.20529" lon="4.94839">
        <ele>435</ele>
        <time>2021-10-14T12:32:33Z</time>
      </trkpt>
      <trkpt lat="47.20517" lon="4.94897">
        <ele>434</ele>
        <time>2021-10-14T12:33:07Z</time>
      </trkpt>
      <trkpt lat="47.20509" lon="4.94921">
        <ele>433</ele>
        <time>2021-10-14T12:33:23Z</time>
      </trkpt>
      <trkpt lat="47.20508" lon="4.9493">
        <ele>433</ele>
        <time>2021-10-14T12:33:28Z</time>
      </trkpt>
      <trkpt lat="47.20506" lon="4.94938">
        <ele>433</ele>
        <time>2021-10-14T12:33:33Z</time>
      </trkpt>
      <trkpt lat="47.20503" lon="4.94961">
        <ele>432</ele>
        <time>2021-10-14T12:33:48Z</time>
      </trkpt>
      <trkpt lat="47.20499" lon="4.94975">
        <ele>432</ele>
        <time>2021-10-14T12:33:58Z</time>
      </trkpt>
      <trkpt lat="47.20492" lon="4.95011">
        <ele>430</ele>
        <time>2021-10-14T12:34:21Z</time>
      </trkpt>
      <trkpt lat="47.2049" lon="4.95021">
        <ele>429</ele>
        <time>2021-10-14T12:34:26Z</time>
      </trkpt>
      <trkpt lat="47.2049" lon="4.9503">
        <ele>429</ele>
        <time>2021-10-14T12:34:32Z</time>
      </trkpt>
      <trkpt lat="47.20488" lon="4.95047">
        <ele>428</ele>
        <time>2021-10-14T12:34:43Z</time>
      </trkpt>
      <trkpt lat="47.20489" lon="4.95057">
        <ele>427</ele>
        <time>2021-10-14T12:34:48Z</time>
      </trkpt>
      <trkpt lat="47.20491" lon="4.95065">
        <ele>427</ele>
        <time>2021-10-14T12:34:53Z</time>
      </trkpt>
      <trkpt lat="47.20496" lon="4.95073">
        <ele>427</ele>
        <time>2021-10-14T12:34:58Z</time>
      </trkpt>
      <trkpt lat="47.20505" lon="4.95082">
        <ele>426</ele>
        <time>2021-10-14T12:35:06Z</time>
      </trkpt>
      <trkpt lat="47.20509" lon="4.95089">
        <ele>426</ele>
        <time>2021-10-14T12:35:12Z</time>
      </trkpt>
      <trkpt lat="47.20511" lon="4.95098">
        <ele>426</ele>
        <time>2021-10-14T12:35:17Z</time>
      </trkpt>
      <trkpt lat="47.20504" lon="4.95157">
        <ele>423</ele>
        <time>2021-10-14T12:35:51Z</time>
      </trkpt>
      <trkpt lat="47.20502" lon="4.95164">
        <ele>422</ele>
        <time>2021-10-14T12:35:56Z</time>
      </trkpt>
      <trkpt lat="47.205" lon="4.95181">
        <ele>421</ele>
        <time>2021-10-14T12:36:05Z</time>
      </trkpt>
      <trkpt lat="47.2047" lon="4.95247">
        <ele>417</ele>
        <time>2021-10-14T12:36:52Z</time>
      </trkpt>
      <trkpt lat="47.20437" lon="4.9529">
        <ele>411</ele>
        <time>2021-10-14T12:37:32Z</time>
      </trkpt>
      <trkpt lat="47.2041" lon="4.95312">
        <ele>408</ele>
        <time>2021-10-14T12:37:56Z</time>
      </trkpt>
      <trkpt lat="47.20384" lon="4.95341">
        <ele>403</ele>
        <time>2021-10-14T12:38:28Z</time>
      </trkpt>
      <trkpt lat="47.20384" lon="4.95347">
        <ele>404</ele>
        <time>2021-10-14T12:39:48Z</time>
      </trkpt>
      <trkpt lat="47.20377" lon="4.95364">
        <ele>401</ele>
        <time>2021-10-14T12:42:03Z</time>
      </trkpt>
      <trkpt lat="47.2038" lon="4.9537">
        <ele>400</ele>
        <time>2021-10-14T12:42:09Z</time>
      </trkpt>
      <trkpt lat="47.20386" lon="4.95375">
        <ele>400</ele>
        <time>2021-10-14T12:42:15Z</time>
      </trkpt>
      <trkpt lat="47.20391" lon="4.95388">
        <ele>400</ele>
        <time>2021-10-14T12:42:28Z</time>
      </trkpt>
      <trkpt lat="47.20397" lon="4.95391">
        <ele>399</ele>
        <time>2021-10-14T12:42:34Z</time>
      </trkpt>
      <trkpt lat="47.20403" lon="4.95381">
        <ele>400</ele>
        <time>2021-10-14T12:42:48Z</time>
      </trkpt>
      <trkpt lat="47.20409" lon="4.95384">
        <ele>401</ele>
        <time>2021-10-14T12:42:54Z</time>
      </trkpt>
      <trkpt lat="47.20415" lon="4.95388">
        <ele>401</ele>
        <time>2021-10-14T12:43:00Z</time>
      </trkpt>
      <trkpt lat="47.20422" lon="4.95386">
        <ele>401</ele>
        <time>2021-10-14T12:43:08Z</time>
      </trkpt>
      <trkpt lat="47.20428" lon="4.95385">
        <ele>402</ele>
        <time>2021-10-14T12:43:17Z</time>
      </trkpt>
      <trkpt lat="47.20439" lon="4.95386">
        <ele>403</ele>
        <time>2021-10-14T12:43:28Z</time>
      </trkpt>
      <trkpt lat="47.20444" lon="4.9539">
        <ele>403</ele>
        <time>2021-10-14T12:43:34Z</time>
      </trkpt>
      <trkpt lat="47.20453" lon="4.95405">
        <ele>403</ele>
        <time>2021-10-14T12:43:46Z</time>
      </trkpt>
      <trkpt lat="47.2047" lon="4.9542">
        <ele>402</ele>
        <time>2021-10-14T12:44:05Z</time>
      </trkpt>
      <trkpt lat="47.20475" lon="4.95424">
        <ele>402</ele>
        <time>2021-10-14T12:44:11Z</time>
      </trkpt>
      <trkpt lat="47.20478" lon="4.95432">
        <ele>402</ele>
        <time>2021-10-14T12:44:17Z</time>
      </trkpt>
      <trkpt lat="47.20485" lon="4.95438">
        <ele>401</ele>
        <time>2021-10-14T12:44:25Z</time>
      </trkpt>
      <trkpt lat="47.20489" lon="4.95444">
        <ele>401</ele>
        <time>2021-10-14T12:44:31Z</time>
      </trkpt>
      <trkpt lat="47.20499" lon="4.95455">
        <ele>400</ele>
        <time>2021-10-14T12:44:42Z</time>
      </trkpt>
      <trkpt lat="47.20514" lon="4.95466">
        <ele>400</ele>
        <time>2021-10-14T12:44:56Z</time>
      </trkpt>
      <trkpt lat="47.20519" lon="4.95473">
        <ele>399</ele>
        <time>2021-10-14T12:45:02Z</time>
      </trkpt>
      <trkpt lat="47.20525" lon="4.95476">
        <ele>399</ele>
        <time>2021-10-14T12:45:08Z</time>
      </trkpt>
      <trkpt lat="47.20531" lon="4.95476">
        <ele>399</ele>
        <time>2021-10-14T12:45:13Z</time>
      </trkpt>
      <trkpt lat="47.20541" lon="4.95484">
        <ele>399</ele>
        <time>2021-10-14T12:45:22Z</time>
      </trkpt>
      <trkpt lat="47.20546" lon="4.95491">
        <ele>399</ele>
        <time>2021-10-14T12:45:28Z</time>
      </trkpt>
      <trkpt lat="47.20553" lon="4.95495">
        <ele>400</ele>
        <time>2021-10-14T12:45:38Z</time>
      </trkpt>
      <trkpt lat="47.20559" lon="4.95498">
        <ele>400</ele>
        <time>2021-10-14T12:45:44Z</time>
      </trkpt>
      <trkpt lat="47.20569" lon="4.95514">
        <ele>399</ele>
        <time>2021-10-14T12:45:58Z</time>
      </trkpt>
      <trkpt lat="47.20599" lon="4.95543">
        <ele>398</ele>
        <time>2021-10-14T12:46:32Z</time>
      </trkpt>
      <trkpt lat="47.20609" lon="4.95553">
        <ele>397</ele>
        <time>2021-10-14T12:46:42Z</time>
      </trkpt>
      <trkpt lat="47.2062" lon="4.95566">
        <ele>396</ele>
        <time>2021-10-14T12:46:55Z</time>
      </trkpt>
      <trkpt lat="47.20625" lon="4.9557">
        <ele>395</ele>
        <time>2021-10-14T12:46:59Z</time>
      </trkpt>
      <trkpt lat="47.20641" lon="4.95576">
        <ele>394</ele>
        <time>2021-10-14T12:47:13Z</time>
      </trkpt>
      <trkpt lat="47.20646" lon="4.95575">
        <ele>395</ele>
        <time>2021-10-14T12:47:19Z</time>
      </trkpt>
      <trkpt lat="47.20652" lon="4.95576">
        <ele>394</ele>
        <time>2021-10-14T12:47:24Z</time>
      </trkpt>
      <trkpt lat="47.20665" lon="4.95574">
        <ele>394</ele>
        <time>2021-10-14T12:47:37Z</time>
      </trkpt>
      <trkpt lat="47.20676" lon="4.95576">
        <ele>394</ele>
        <time>2021-10-14T12:47:48Z</time>
      </trkpt>
      <trkpt lat="47.20681" lon="4.95575">
        <ele>394</ele>
        <time>2021-10-14T12:47:54Z</time>
      </trkpt>
      <trkpt lat="47.20688" lon="4.95575">
        <ele>394</ele>
        <time>2021-10-14T12:47:58Z</time>
      </trkpt>
      <trkpt lat="47.20702" lon="4.95586">
        <ele>392</ele>
        <time>2021-10-14T12:48:27Z</time>
      </trkpt>
      <trkpt lat="47.20708" lon="4.95594">
        <ele>391</ele>
        <time>2021-10-14T12:48:39Z</time>
      </trkpt>
      <trkpt lat="47.20712" lon="4.956">
        <ele>390</ele>
        <time>2021-10-14T12:48:51Z</time>
      </trkpt>
      <trkpt lat="47.20717" lon="4.95606">
        <ele>388</ele>
        <time>2021-10-14T12:49:09Z</time>
      </trkpt>
      <trkpt lat="47.20711" lon="4.9561">
        <ele>388</ele>
        <time>2021-10-14T12:49:22Z</time>
      </trkpt>
      <trkpt lat="47.20728" lon="4.95608">
        <ele>388</ele>
        <time>2021-10-14T12:50:18Z</time>
      </trkpt>
      <trkpt lat="47.20735" lon="4.95606">
        <ele>388</ele>
        <time>2021-10-14T12:50:25Z</time>
      </trkpt>
      <trkpt lat="47.20741" lon="4.95606">
        <ele>388</ele>
        <time>2021-10-14T12:50:29Z</time>
      </trkpt>
      <trkpt lat="47.20753" lon="4.95604">
        <ele>387</ele>
        <time>2021-10-14T12:50:39Z</time>
      </trkpt>
      <trkpt lat="47.20758" lon="4.95599">
        <ele>386</ele>
        <time>2021-10-14T12:50:44Z</time>
      </trkpt>
      <trkpt lat="47.20764" lon="4.956">
        <ele>386</ele>
        <time>2021-10-14T12:50:49Z</time>
      </trkpt>
      <trkpt lat="47.20769" lon="4.95595">
        <ele>386</ele>
        <time>2021-10-14T12:50:53Z</time>
      </trkpt>
      <trkpt lat="47.20777" lon="4.95584">
        <ele>385</ele>
        <time>2021-10-14T12:51:02Z</time>
      </trkpt>
      <trkpt lat="47.20786" lon="4.9556">
        <ele>384</ele>
        <time>2021-10-14T12:51:19Z</time>
      </trkpt>
      <trkpt lat="47.2079" lon="4.9554">
        <ele>383</ele>
        <time>2021-10-14T12:51:31Z</time>
      </trkpt>
      <trkpt lat="47.20798" lon="4.95522">
        <ele>383</ele>
        <time>2021-10-14T12:51:50Z</time>
      </trkpt>
      <trkpt lat="47.20804" lon="4.95499">
        <ele>382</ele>
        <time>2021-10-14T12:52:05Z</time>
      </trkpt>
      <trkpt lat="47.20804" lon="4.95489">
        <ele>382</ele>
        <time>2021-10-14T12:52:15Z</time>
      </trkpt>
      <trkpt lat="47.20811" lon="4.95457">
        <ele>382</ele>
        <time>2021-10-14T12:52:41Z</time>
      </trkpt>
      <trkpt lat="47.20836" lon="4.95385">
        <ele>380</ele>
        <time>2021-10-14T12:53:34Z</time>
      </trkpt>
      <trkpt lat="47.20851" lon="4.95335">
        <ele>379</ele>
        <time>2021-10-14T12:54:11Z</time>
      </trkpt>
      <trkpt lat="47.20864" lon="4.95271">
        <ele>377</ele>
        <time>2021-10-14T12:54:48Z</time>
      </trkpt>
      <trkpt lat="47.20873" lon="4.9523">
        <ele>376</ele>
        <time>2021-10-14T12:55:13Z</time>
      </trkpt>
      <trkpt lat="47.20888" lon="4.95194">
        <ele>375</ele>
        <time>2021-10-14T12:55:39Z</time>
      </trkpt>
      <trkpt lat="47.209" lon="4.9518">
        <ele>375</ele>
        <time>2021-10-14T12:55:54Z</time>
      </trkpt>
      <trkpt lat="47.20914" lon="4.95174">
        <ele>375</ele>
        <time>2021-10-14T12:56:06Z</time>
      </trkpt>
      <trkpt lat="47.20942" lon="4.95183">
        <ele>374</ele>
        <time>2021-10-14T12:56:31Z</time>
      </trkpt>
      <trkpt lat="47.20967" lon="4.95209">
        <ele>373</ele>
        <time>2021-10-14T12:56:59Z</time>
      </trkpt>
      <trkpt lat="47.20973" lon="4.95228">
        <ele>373</ele>
        <time>2021-10-14T12:57:26Z</time>
      </trkpt>
      <trkpt lat="47.20975" lon="4.95274">
        <ele>373</ele>
        <time>2021-10-14T12:59:32Z</time>
      </trkpt>
      <trkpt lat="47.2098" lon="4.95361">
        <ele>372</ele>
        <time>2021-10-14T13:00:25Z</time>
      </trkpt>
      <trkpt lat="47.20982" lon="4.95404">
        <ele>370</ele>
        <time>2021-10-14T13:00:49Z</time>
      </trkpt>
      <trkpt lat="47.20994" lon="4.95447">
        <ele>368</ele>
        <time>2021-10-14T13:01:37Z</time>
      </trkpt>
      <trkpt lat="47.21007" lon="4.95511">
        <ele>367</ele>
        <time>2021-10-14T13:02:15Z</time>
      </trkpt>
      <trkpt lat="47.21011" lon="4.95547">
        <ele>365</ele>
        <time>2021-10-14T13:02:36Z</time>
      </trkpt>
      <trkpt lat="47.21025" lon="4.95599">
        <ele>364</ele>
        <time>2021-10-14T13:03:08Z</time>
      </trkpt>
      <trkpt lat="47.21027" lon="4.95607">
        <ele>363</ele>
        <time>2021-10-14T13:03:13Z</time>
      </trkpt>
      <trkpt lat="47.21029" lon="4.95615">
        <ele>363</ele>
        <time>2021-10-14T13:03:18Z</time>
      </trkpt>
      <trkpt lat="47.21051" lon="4.95654">
        <ele>361</ele>
        <time>2021-10-14T13:03:49Z</time>
      </trkpt>
      <trkpt lat="47.21063" lon="4.95669">
        <ele>360</ele>
        <time>2021-10-14T13:04:01Z</time>
      </trkpt>
      <trkpt lat="47.21081" lon="4.95706">
        <ele>359</ele>
        <time>2021-10-14T13:04:27Z</time>
      </trkpt>
      <trkpt lat="47.21102" lon="4.95739">
        <ele>358</ele>
        <time>2021-10-14T13:04:51Z</time>
      </trkpt>
      <trkpt lat="47.21105" lon="4.95746">
        <ele>357</ele>
        <time>2021-10-14T13:04:57Z</time>
      </trkpt>
      <trkpt lat="47.21132" lon="4.9579">
        <ele>356</ele>
        <time>2021-10-14T13:05:33Z</time>
      </trkpt>
      <trkpt lat="47.21146" lon="4.95815">
        <ele>355</ele>
        <time>2021-10-14T13:05:54Z</time>
      </trkpt>
      <trkpt lat="47.21169" lon="4.95845">
        <ele>353</ele>
        <time>2021-10-14T13:06:20Z</time>
      </trkpt>
      <trkpt lat="47.21173" lon="4.95852">
        <ele>353</ele>
        <time>2021-10-14T13:06:25Z</time>
      </trkpt>
      <trkpt lat="47.21183" lon="4.95864">
        <ele>352</ele>
        <time>2021-10-14T13:06:37Z</time>
      </trkpt>
      <trkpt lat="47.21192" lon="4.95882">
        <ele>351</ele>
        <time>2021-10-14T13:06:50Z</time>
      </trkpt>
      <trkpt lat="47.21197" lon="4.95888">
        <ele>351</ele>
        <time>2021-10-14T13:06:55Z</time>
      </trkpt>
      <trkpt lat="47.212" lon="4.95896">
        <ele>351</ele>
        <time>2021-10-14T13:07:01Z</time>
      </trkpt>
      <trkpt lat="47.21234" lon="4.95945">
        <ele>349</ele>
        <time>2021-10-14T13:07:40Z</time>
      </trkpt>
      <trkpt lat="47.2127" lon="4.9599">
        <ele>347</ele>
        <time>2021-10-14T13:08:17Z</time>
      </trkpt>
      <trkpt lat="47.21303" lon="4.96037">
        <ele>345</ele>
        <time>2021-10-14T13:08:56Z</time>
      </trkpt>
      <trkpt lat="47.21339" lon="4.96079">
        <ele>343</ele>
        <time>2021-10-14T13:09:32Z</time>
      </trkpt>
      <trkpt lat="47.21376" lon="4.96114">
        <ele>341</ele>
        <time>2021-10-14T13:10:06Z</time>
      </trkpt>
      <trkpt lat="47.21418" lon="4.96137">
        <ele>340</ele>
        <time>2021-10-14T13:10:39Z</time>
      </trkpt>
      <trkpt lat="47.21444" lon="4.96161">
        <ele>339</ele>
        <time>2021-10-14T13:11:01Z</time>
      </trkpt>
      <trkpt lat="47.2148" lon="4.96184">
        <ele>337</ele>
        <time>2021-10-14T13:11:35Z</time>
      </trkpt>
      <trkpt lat="47.21522" lon="4.96206">
        <ele>336</ele>
        <time>2021-10-14T13:12:13Z</time>
      </trkpt>
      <trkpt lat="47.21551" lon="4.96213">
        <ele>334</ele>
        <time>2021-10-14T13:12:35Z</time>
      </trkpt>
      <trkpt lat="47.2159" lon="4.96236">
        <ele>333</ele>
        <time>2021-10-14T13:13:13Z</time>
      </trkpt>
      <trkpt lat="47.21633" lon="4.9625">
        <ele>331</ele>
        <time>2021-10-14T13:13:47Z</time>
      </trkpt>
      <trkpt lat="47.21676" lon="4.96262">
        <ele>329</ele>
        <time>2021-10-14T13:14:22Z</time>
      </trkpt>
      <trkpt lat="47.21723" lon="4.96277">
        <ele>328</ele>
        <time>2021-10-14T13:15:06Z</time>
      </trkpt>
      <trkpt lat="47.21737" lon="4.96278">
        <ele>327</ele>
        <time>2021-10-14T13:15:18Z</time>
      </trkpt>
      <trkpt lat="47.21766" lon="4.96287">
        <ele>327</ele>
        <time>2021-10-14T13:16:13Z</time>
      </trkpt>
      <trkpt lat="47.21793" lon="4.96299">
        <ele>325</ele>
        <time>2021-10-14T13:16:37Z</time>
      </trkpt>
      <trkpt lat="47.2183" lon="4.96304">
        <ele>324</ele>
        <time>2021-10-14T13:17:10Z</time>
      </trkpt>
      <trkpt lat="47.21877" lon="4.96313">
        <ele>323</ele>
        <time>2021-10-14T13:17:49Z</time>
      </trkpt>
      <trkpt lat="47.21931" lon="4.96318">
        <ele>320</ele>
        <time>2021-10-14T13:18:44Z</time>
      </trkpt>
      <trkpt lat="47.21977" lon="4.9632">
        <ele>319</ele>
        <time>2021-10-14T13:19:22Z</time>
      </trkpt>
      <trkpt lat="47.22021" lon="4.96325">
        <ele>318</ele>
        <time>2021-10-14T13:19:57Z</time>
      </trkpt>
      <trkpt lat="47.22043" lon="4.96327">
        <ele>317</ele>
        <time>2021-10-14T13:20:24Z</time>
      </trkpt>
    </trkseg>
  </trk>
</gpx>